最新摇奖举报发现闪登
开启辅助访问

QQ登录

注册 找回密码
所在版块 标题 作者 人气 回复 发表时间
网站帮助 都是为了任务 一叶丶白白 15 1 2017-06-28 03:52
申请区 申请活跃度和土豪金兑换成元素币 AK32 12 1 2017-06-28 01:43
技术文章 3ds Max人物女性角色模型建模教程 太阳的眼泪 15 1 2017-06-28 01:15
行业讯息 星风收购瑞典公司Enterspace 为VR打造内容 太阳的眼泪 0 0 2017-06-28 01:02
游戏新闻 《混乱特工》全新预告身材火辣的性感美女特工亮相 太阳的眼泪 16 2 2017-06-28 00:59
举报投诉 内容失效2 乐兔blake 0 0 2017-06-28 00:34
举报投诉 内容失效 乐兔blake 0 0 2017-06-28 00:32
原创2D作品 发个之前的个人习作 阿斯特蕾亚 27 3 2017-06-27 23:24
举报投诉 下載鍊失效 小馬高 0 0 2017-06-27 23:18
申请区 当小仙女的鼓励师,我要申请当鼓励师 heizai 27 1 2017-06-27 22:06
重复资源 6月最新跟新王者荣耀 原画 宣传图 psd 带分层 20G!! 全网最大 1039684198 23 1 2017-06-27 21:54
东方神韵 AA 元素界王 21 1 2017-06-27 21:38
申请区 申请成为鼓励师 那肯 30 3 2017-06-27 20:25
成套集合 疯狂的爱丽丝6梦的终结(mad alyss 6 dreams end)已汉化 帅的掉渣 146 16 2017-06-27 18:26
黄金画集 美味!”的3D片段 sky_jh 0 0 2017-06-27 18:25
场景概念 华夏古风风格场景素材3000张 七冻灭炎师 88 22 2017-06-27 18:03
超级集合 攻壳机动队 动漫原画设定素材综合整理 四系乃 26 2 2017-06-27 18:00
日韩精品 英灵化(附身)远坂凛/ 伊什塔尔 图包 双江极品家 70 10 2017-06-27 17:54
元素知道 求一张图的出处 既视感 0 0 2017-06-27 17:28
成套集合 暗黑血统2,暗黑血统手游,所有角色模型!!!!!快到碗里来!! Kx。 16 32 2017-06-27 17:21
元素知道 请问封面这个是哪位韩国画师图? 既视感 0 0 2017-06-27 17:20
申请区 申请“一日万金”任务的完成奖励 伊卜星 50 2 2017-06-27 16:51
企业招聘 广州谷得诚聘地编 数值 系统 HR-詹詹 3 2 2017-06-27 16:46
东方神韵 大神KD作品 心形盒子 68 19 2017-06-27 16:18
【鼓励师】专区 新人鼓励师第一次申请补充弹药! 巡山小妖 0 0 2017-06-27 16:14
场景模型 头盔模型 haihai163 28 2 2017-06-27 16:09
巫妖王区 國模泡泡 liumo1 0 0 2017-06-27 15:34
欧美大神 中国台北画师 EVAN LEE 精品插画近作欣赏 silucgcwy 57 3 2017-06-27 15:12
古典COS 旗袍妹子 loyant 52 3 2017-06-27 15:08
企业招聘 中级手游场景原画设计师 ldwl 0 0 2017-06-27 14:37
综合模型 高质量水晶矿石 低模!不要错过 jeason3 49 4 2017-06-27 14:17
企业招聘 寰聚网络诚聘服务端程序、次世代场景 寰聚网络 0 0 2017-06-27 14:16
每日涂鸦练习 物件设计 阳子的天空 0 0 2017-06-27 13:47
服务商 成都灵猴网络—优质游戏美术供应商 cglh 0 0 2017-06-27 12:39
成套集合 DOTA散装92位英雄!!大联盟带法线贴图哟~货比价更高!! 631684225 52 4 2017-06-27 12:37
巫妖王区 Chouchou liumo1 28 2 2017-06-27 12:35
美女摄影 夢心玥黑色高叉泳衣 liumo1 39 2 2017-06-27 12:29
美女摄影 可樂Vicky黑絲情趣紗裙+連體彩絲 liumo1 37 1 2017-06-27 12:24
举报投诉 链接损坏,无法下载,求退币 Jm411074922 0 0 2017-06-27 11:57
欧美大神 Sean ellery 心形盒子 35 4 2017-06-27 11:23
Unity资源 unity半人马模型,带全套动作 c2engine 31 3 2017-06-27 11:11
技术文章 【创意云】在Vray Sketchup中渲染Pool Water——创意云邀您一起鸳鸯游 qq412732261 0 0 2017-06-27 11:07
日韩精品 平时的一点收集 心形盒子 77 10 2017-06-27 11:03
欧美大神 清新可爱童话风《法国概念设计师Samuel Petroff作品欣赏》【55P】 空空如也不知处 60 5 2017-06-27 11:02
综合分享 arnold零基础学习教程内含多套教程 大大大橙子 83 6 2017-06-27 11:00
重复资源 暗黑血统手游最全角色模型!!!!你指的拥有 Kx。 33 4 2017-06-27 10:44
截图资源 手机游戏截图UI-《英雄战歌》再现立体式卡牌 子桐 13 2 2017-06-27 10:33
版权维护【禁发】 ZBrush 4R8 中文版(PJ) ziyoudeai8 31 8 2017-06-27 10:31
场景模型 末日场景荒废的小镇 huzhao@123 25 3 2017-06-27 10:29
举报投诉 购买次数乌限制啊! AOA 0 0 2017-06-27 10:06
欧美大神 幻想插画 《圣经》插画-古斯塔夫.多雷 daodan 67 72 2017-06-27 09:28
超级集合 8k左右hdr贴图一百多张 1811903049 66 11 2017-06-27 09:27
元素矿场 好无聊,好想XXX ubuntu 64 2 2017-06-27 09:08
教程下载 C4D与Substance Painter结合使用技巧视频教程 Diss 75 13 2017-06-27 09:00
重复资源 头发,头底模 153422891 43 10 2017-06-27 08:56
日韩精品 金政基线稿(1930P) 木木DDDDD 67 11 2017-06-27 08:43
教程下载 Unity游戏设计综合训练视频教程 Diss 57 11 2017-06-27 08:00
日韩精品 【滑稽】诱惑而不骚的R17.9精选,116P Nymph 452 99 2017-06-27 01:53
古典COS 【COS】东方,铃仙 · 优昙华院 · 因幡,30P Nymph 104 12 2017-06-27 01:48
元素悬赏 悬赏敦煌宣传原画的模型(内含图)急用!!! 浮生梦染 56 2 2017-06-26 23:48
Unity资源 一条小飞船4 cocoller 24 3 2017-06-26 23:48
Unity资源 一条小飞船3 cocoller 22 3 2017-06-26 23:47
Unity资源 一条小飞船2 cocoller 18 3 2017-06-26 23:45
Unity资源 一个飞船小模型 cocoller 17 2 2017-06-26 23:43
元素知道 好不容易打开了挖矿没了? wza04010104 56 6 2017-06-26 22:37
申请区 活跃度和土豪金兑换成元素币 那肯 0 0 2017-06-26 22:34
独立角色 狐狸女 孤帆冷血 118 21 2017-06-26 21:29
每日涂鸦练习 透视练习 沐雨秋风 20 2 2017-06-26 19:47
举报投诉 重复购买.球帮助退币麻烦了 1991072687 0 0 2017-06-26 19:27
成套集合 角色/坐骑/怪物/宠物/道具模型集合 阿耀 177 17 2017-06-26 19:05
巫妖王区 眾籌拍姑娘 《脫在分手後》 liumo1 67 3 2017-06-26 19:04
举报投诉 链接失效——申请退币 hwmsc1992 0 0 2017-06-26 18:56
举报投诉 重复扣除元素币,帮我找回下 chichichi1 20 3 2017-06-26 18:55
技术文章 【创意云】【雪】混合材质V-Ray渲染——雪球越滚越大,创意云越渲越快 qq412732261 0 0 2017-06-26 16:21
元素矿场 矿场怎么没了吗,是倒闭了吗。。。。 zhou19961001 109 2 2017-06-26 15:43
举报投诉 买一个资源怎么同一时间给我扣了双份的元素币! lyet925 36 6 2017-06-26 15:43
元素矿场 吊炸天,整个矿场都炸没了吗。什么时候恢复啊 骑猪看世界 0 0 2017-06-26 15:42
巫妖王区 杭州莉莉私房寫真 liumo1 84 6 2017-06-26 15:24
日韩精品 【RustyHearts颓废之心】原画集120p 316734732 175 36 2017-06-26 15:18
元素矿场 整个矿场都被炸没了:) loyant 127 11 2017-06-26 14:57
举报投诉 失效素材 元邪皇 0 0 2017-06-26 13:12
申请区 活跃度和土豪金兑换元素币 WWE 0 0 2017-06-26 13:07
Unity3D 首发 U3D大型格斗网游【龙骑战歌】完整源码+美术资源40G yesbai 116 8 2017-06-26 13:06
美女摄影 可樂Vicky黑絲情趣紗裙 liumo1 108 10 2017-06-26 12:49
巫妖王区 62520 liumo1 58 5 2017-06-26 12:37
举报投诉 多次扣币。 AOA 0 0 2017-06-26 12:36
巫妖王区 62509 liumo1 50 4 2017-06-26 12:35
巫妖王区 絕色美女娜娜 liumo1 62 10 2017-06-26 12:34
美女摄影 姍姍就打奧特曼 liumo1 76 9 2017-06-26 12:29
元素知道 为什么最近论坛总打不开 努力的人 33 3 2017-06-26 12:11
UE虚幻 Unreal Engine虚幻游戏引擎扩展资料2017年6月合辑第一季 Diss 47 6 2017-06-26 10:00
古典COS 旗袍第四波 loyant 40 7 2017-06-26 09:01
教程下载 万圣节女性装扮数字绘画艺术视频教程 Diss 83 18 2017-06-26 09:00
巫妖王区 国模 人体建模参考 高清无水印原图 87P 595MB yhtggg 68 9 2017-06-26 08:48
举报投诉 这个帖子第一个卖50币的没有链接 937427562 0 0 2017-06-26 08:34
教程下载 Substance Painter模型贴图绘制全面核心训练视频教程 Diss 142 49 2017-06-26 08:00
手游模型 Q版手游《少年龙骑兵》全套角色怪物模型 太阳的眼泪 65 2 2017-06-26 00:53
平面设计 音乐均衡器UI界面设计 aa447957932 27 3 2017-06-26 00:01
平面设计 天气小部件UI设计作品 aa447957932 17 1 2017-06-25 23:58
平面设计 平面设计与ui设计区别 aa447957932 29 4 2017-06-25 23:56
平面设计 做UI的你,这平面看过吗 aa447957932 26 2 2017-06-25 23:55
技术文章 inux nat转发 Linux NAT基本流程与实现技巧 aa447957932 17 1 2017-06-25 23:49
元素矿场 我想什么时候开新的星球应该是大家都想知道的,我也想知道 上海唐寅 26 2 2017-06-25 23:42
举报投诉 链接失效,麻烦补档 叨叨致命 0 0 2017-06-25 23:31
举报投诉 连接失效,望站长帮忙解决 感谢 加技能吧 0 0 2017-06-25 23:19
版权维护【禁发】 Substance Painte制作,中文视频课程 龙门阿彪 22 0 2017-06-25 22:50
举报投诉 取消举报 a857165175 17 1 2017-06-25 22:14
Unity3D 如何学习 aa447957932 24 1 2017-06-25 22:12
举报投诉 举报一个虚假链接,用只有7MB的文件骗人 a857165175 27 1 2017-06-25 22:09
版权维护【禁发】 Substance Painte制作,中文视频课程 龙门阿彪 12 1 2017-06-25 21:28
举报投诉 举报无效链接,申请退币,购买后给的链接是无效的 a857165175 0 0 2017-06-25 21:22
手游模型 q版小狐狸 孤帆冷血 39 5 2017-06-25 21:15
【鼓励师】专区 请辞鼓励师,并申请以30000元素币兑同等活跃度,以后慢慢以个人身份给喜欢的帖加分 伊卜星 0 0 2017-06-25 20:38
元素矿场 关于矿场 长臂猿19 67 4 2017-06-25 20:18
元素矿场 界王星轰哧一声去了异次元了 loyant 67 6 2017-06-25 19:37
青铜画集 好像不能调整大小~? NAT-2017 48 8 2017-06-25 19:31
举报投诉 举报链接失效,购买了,无法下载!!! 莫邪w 0 0 2017-06-25 18:26
青铜画集 【临摹练习】卡通角色手绘29:全职 a1043575137 21 3 2017-06-25 18:02
元素矿场 界王星爆炸了--随即一爆的噩梦展开了! 元素界王 187 12 2017-06-25 17:57
美女摄影 90后绝美陈潇21P 小龙鱼在飞 87 12 2017-06-25 17:48
UE虚幻 Share Unreal Engine furniture Project hoang1312 67 9 2017-06-25 16:27
UE虚幻 Unreal engine furniture hoang1312 31 5 2017-06-25 16:15
原创3D作品 (演义秦风)中国节气——夏至 时光的演义 40 7 2017-06-25 16:04
【鼓励师】专区 六月申请弹药 子桐 0 0 2017-06-25 15:42
日韩精品 日大神线稿,值得学习 zhongshan 132 11 2017-06-25 15:32
科幻世界 朱峰大神绘画作品 zhongshan 69 7 2017-06-25 15:28
教程下载 背包系统 装备系统和锻造系统 - 基于Unity5.3UGUI 奋斗中的猫 79 12 2017-06-25 15:16
教程下载 UI框架 - 基于Unity5.3UGUI 奋斗中的猫 82 19 2017-06-25 15:09
举报投诉 重复扣币 wang669 0 0 2017-06-25 15:05
举报投诉 重复扣币8次,请求退币!!!!!!! pop606 0 0 2017-06-25 14:29
原创3D作品 麦斯米科尔森白模 lzey 79 11 2017-06-25 10:25
综合分享 PG作品合集 hlp981011 192 103 2017-06-25 10:15
Unity资源 Unity飞机 shui861 52 4 2017-06-25 09:18
软件工具 Substance Designer纹理材质制作软件V6.0.4.265版 Diss 83 21 2017-06-25 09:00
软件工具 Substance Painter三维纹理材质绘画软件V2017.1.0-1661版 Diss 106 20 2017-06-25 09:00
元素矿场 到底爆不爆了 ubuntu 52 10 2017-06-25 07:16
古典COS 旗袍第三波 loyant 99 10 2017-06-25 06:58
原创3D作品 maya动画制作成长记录 宇宙大丹 38 2 2017-06-25 06:33
综合分享 plugin Multy Converter hoang1312 0 0 2017-06-25 05:43
巫妖王区 福利,守望先锋所有女角色cg欣赏 乖萌受。 46 4 2017-06-25 05:23
Unity3D uDesign Tools边界工具 junniem 54 8 2017-06-24 16:05
Unity3D Flow Machine流体插件 junniem 53 8 2017-06-24 15:36
巫妖王区 圣堂锁链也束缚不住这肉体 m955092 299 66 2017-06-24 15:30
Unity资源 Unity低模场景 shui861 0 0 2017-06-24 15:29
古典COS 旗袍第二波,尽显妩媚 loyant 126 11 2017-06-24 15:20
Unity资源 Unity140个逼真天空球 shui861 49 5 2017-06-24 15:11
Unity3D Amplify Color 1.3.1镜头调色 junniem 33 5 2017-06-24 15:01
Unity3D 镜头灰尘特效 junniem 51 7 2017-06-24 14:42
独立角色 神策从子健 L鹿九J 50 5 2017-06-24 14:29
独立角色 传令官 L鹿九J 39 4 2017-06-24 14:25
Unity3D 图形化界面插件 junniem 49 12 2017-06-24 14:19
举报投诉 网盘链接失效!!申请退币!! yakumoyou 8 2 2017-06-24 14:04
Unity3D 关卡制作插件 junniem 29 3 2017-06-24 13:58
巫妖王区 漁夫作品—人妻の秘密寫真集第四季 liumo1 83 8 2017-06-24 13:54
巫妖王区 漁夫作品之人妻の秘密寫真集第五季 liumo1 63 5 2017-06-24 13:48
巫妖王区 漁夫作品—人妻の秘密寫真集第三季 liumo1 47 4 2017-06-24 13:46
巫妖王区 瑞莎Trista與閔妮Mily雙女 liumo1 69 4 2017-06-24 13:44
教程下载 Modo影视级概念科幻车辆制作视频教程 Diss 120 28 2017-06-24 13:08
教程下载 极光雪屋数字绘画实例训练视频教程 Diss 135 28 2017-06-24 12:56
教程下载 Blender与Unity游戏角色制作视频教程 Diss 60 12 2017-06-24 12:51
教程下载 数字插画实例制作视频教程 Diss 100 16 2017-06-24 12:50
教程下载 十七年夏天教程 九天玄仙sky 291 25 2017-06-24 09:18
元素矿场 建议:降低高级矿场主(矿工100及100+)的收益 MushishiGinko 145 6 2017-06-24 09:09
教程下载 PS头像绘制技巧 九天玄仙sky 87 16 2017-06-24 09:09
美女摄影 柳侑绮 风情万种37P 小龙鱼在飞 98 11 2017-06-24 08:48
元素矿场 支持矿场调整,并再提一个建议 伊卜星 103 15 2017-06-24 08:09
角色素材 赛尔号素材合集 有马贵将 29 5 2017-06-24 05:03
线稿时代 金政基大神线稿神作!!!!(一共1930P) 木木DDDDD 147 26 2017-06-23 22:17
综合分享 关于光影色彩的讲解视频 逍千子 27 4 2017-06-23 21:28
线稿时代 超棒的人体教程(一共206P) 木木DDDDD 304 57 2017-06-23 21:22
巫妖王区 兔女郎23P 小龙鱼在飞 79 9 2017-06-23 20:45
元素矿场 这几天元素矿场随机炸一个星球? loyant 28 2 2017-06-23 19:46
综合分享 MARI场景贴图中文视频教程下载 gangiau 10 2 2017-06-23 19:34
视频素材 《纯属福利贴只需2金币》 与高僧一起快活你敢吗 鱼灬 301 19 2017-06-23 19:29
美女摄影 海未旗袍裏 liumo1 87 11 2017-06-23 19:29
视频素材 守望先锋教学!!!教你如何玩转守望先锋 鱼灬 67 8 2017-06-23 19:07
成套集合 韩国写实高精度次时代怪物模型第三弹!2G 黄金圣主 119 20 2017-06-23 19:03
举报投诉 链接不存在,请求退币 L鹿九J 0 0 2017-06-23 17:57
场景模型 unity草地,沼泽地场景 c2engine 38 2 2017-06-23 17:49
企业招聘 游戏公司急聘 抛砖引玉irui 0 0 2017-06-23 16:52
Unity资源 unity蘑菇资源 c2engine 11 1 2017-06-23 16:46
Unity资源 unity游动的鱼群 c2engine 16 1 2017-06-23 16:18
Unity3D RTS游戏【远古帝国】(半成品) 1784092848 43 7 2017-06-23 15:47
综合分享 小伙伴看过来,这里有一个神奇的网站 此方可嫁 610 120 2017-06-23 15:44
Unity资源 unity模型,空中角斗场 c2engine 22 1 2017-06-23 15:42
Unity资源 高精度手枪,可拆分部件 c2engine 22 2 2017-06-23 15:12
举报投诉 系统出错多扣元素币 liumo1 11 1 2017-06-23 15:03
技术文章 【创意云】3ds max vray【Noise】贴图渲染游泳池【焦散】caustics效果——我脱了,... qq412732261 0 0 2017-06-23 15:01
Unity资源 武器拖尾效果插件 Better Trails v1.5 yanqing_1119 26 2 2017-06-23 14:17
每日涂鸦练习 色彩速涂练习 阳子的天空 9 2 2017-06-23 14:16
美女摄影 Cherrygirl動漫社出品-繃帶裝 綾波麗 只是诱惑绝对不露 liumo1 64 7 2017-06-23 13:39
教程下载 Substance Designer木材纹理制作视频教程第一季 Diss 106 23 2017-06-23 13:20
教程下载 ZBrush角色精细化雕刻大师级训练视频教程 Diss 459 195 2017-06-23 12:57
Cocos2d cocos2D-x初探学习笔记(32)-cocos2d-x & javascript跨平台初体验 努力的人 16 3 2017-06-23 12:27
美女摄影 天使 liumo1 55 6 2017-06-23 12:26
企业招聘 招聘中高级手游场景原画~~ 创业公司机会多多 小荷尖尖 0 0 2017-06-23 12:17
举报投诉 链接下载资源文件损坏 求退币 依爱 0 0 2017-06-23 11:40
独立角色 穿防护服的医生 panchunhe 62 4 2017-06-23 11:31
欧美大神 幻想插画 奥斯卡.契柯尼复古机械插画集 daodan 0 0 2017-06-23 10:17
美女摄影 斯卡哈 泳装COS 28P 高清4K图 yhtggg 41 3 2017-06-23 08:30
举报投诉 申请退币 z-阳 0 0 2017-06-23 06:43
日韩精品 韩国画师 monaim 作品集25张! Nymph 435 75 2017-06-23 02:03
日韩精品 日本画师 rokoda 作品集30张! Nymph 151 25 2017-06-23 01:39
日韩精品 台湾画师 Lasterk 作品集40张! Nymph 209 32 2017-06-23 01:27
教程下载 三转二写实场景教程 东圣神洲 60 32 2017-06-23 00:20
古典COS 【Cosplay】斗鱼美女主播COS《王者荣耀》不知火舞 惊鸽 123 12 2017-06-22 21:33
元素悬赏 求一下光Y的日韩班或者黄fan的班级 Alexxx 96 3 2017-06-22 21:25
新手交流 大家好,新来的 84301386 0 0 2017-06-22 21:23
场景模型 稀有日系场景资源 黑婪 60 4 2017-06-22 20:11
申请区 申请兑换1000活跃度 llhxj 0 0 2017-06-22 20:02
美女摄影 動漫社出品:拉姆 10P1V liumo1 36 1 2017-06-22 19:57
重复资源 韩国热门网游Bless神佑武器包之法杖类武器合集 canxing123 0 0 2017-06-22 19:28
重复资源 韩国热门网游TERA精致武器之弓类合集 canxing123 0 0 2017-06-22 19:15
巫妖王区 不穿逛街 高清图[68P46M]+视频[mp4/210M] m955092 400 105 2017-06-22 19:06
巫妖王区 羞耻的外滩公园-视频[mp4/398M] m955092 103 9 2017-06-22 18:38
巫妖王区 推女郎 liumo1 32 6 2017-06-22 18:10
巫妖王区 葉兒 葉有陽光 liumo1 30 2 2017-06-22 18:04
Unity资源 Unity3D山脉场景素材包 yanqing_1119 0 0 2017-06-22 18:03
美女摄影 葉兒 葉有陽光 liumo1 14 2 2017-06-22 18:01
日韩精品 Fate Grand Order 图集 七冻灭炎师 64 16 2017-06-22 18:01
美女摄影 林萌萌 蜀女皙秀 liumo1 12 1 2017-06-22 17:59
神奇工具 Substance Painter 2017 强大的贴图软件 365483415 96 2 2017-06-22 17:58
美女摄影 黄可 liumo1 0 0 2017-06-22 17:57
线稿时代 黑白肖像线稿素材 双江极品家 15 1 2017-06-22 17:57
场景模型 影视级高精度写实山体模型场景 雪山场景 2k高分辨率纹理贴图 带法线凹凸 层次感强烈 yanqing_1119 33 1 2017-06-22 17:43
骑宠模型 中国风水墨马(天马,骏马匹,坐骑神驹,神马坐骑马) hlhyrjw 41 4 2017-06-22 17:11
美女摄影 易陽 liumo1 0 0 2017-06-22 17:00
企业招聘 美有科技诚招3D角色 成都美有科技 0 0 2017-06-22 16:57
巫妖王区 商场里风吹屁屁凉 视频[mp4/224M]+高清图[75P/46M] m955092 173 34 2017-06-22 16:35
怪物模型 鱼类(高精度) L鹿九J 15 2 2017-06-22 16:25
综合分享 欣赏画师 KYOUNG HWAN KIM 游戏原画作品 silucgcwy 0 0 2017-06-22 16:25
企业招聘 广州谷得诚聘数值 系统 地编 HR-詹詹 5 2 2017-06-22 16:10
图文教程 Max网格化制作流体血液技巧 像素君 5 1 2017-06-22 15:50
工业模型 MacBook Pro 13 Retina 3D Model C4D han960 19 2 2017-06-22 15:44
举报投诉 链接不存在,请求退币 月上旅人 0 0 2017-06-22 15:39
综合模型 雕花 han960 14 2 2017-06-22 15:38
元素广告 3dpunk Marie 0 0 2017-06-22 15:13
漫画资源 漫画插画新手参考2 丿若邪° 39 16 2017-06-22 15:01
原创3D作品 异形墙面 qdwtuugu 0 0 2017-06-22 14:43
Unity3D 自制特效 hu23 10 2 2017-06-22 14:42
综合模型 绑定卡通女 han960 27 2 2017-06-22 14:30
原创2D作品 两张横版场景练习 癫风舞者 16 1 2017-06-22 14:26
教育培训 将游戏的热情转为工作的动力可好 silucgcwy 4 1 2017-06-22 14:21
举报投诉 资源失效,链接失败,申请退币 Last_Days 0 0 2017-06-22 14:14
怪物模型 一堆怪物 模型不错 ??? 49 3 2017-06-22 13:54
独立角色 古墓丽影9——劳拉 383704178 21 2 2017-06-22 13:39
手游资源 王者荣耀 全套素材 多版本 500M mu8011 91 9 2017-06-22 13:03
企业招聘 诚聘 槿墨科技成都公司诚聘3D手绘场景美术师 lanmao 0 0 2017-06-22 12:56
教程下载 3dsMax中ART渲染器使用技术视频教程 Diss 35 9 2017-06-22 12:27
巫妖王区 嘤嘤嘤.....01 hlhyrjw 57 13 2017-06-22 12:00
UE虚幻 VFXSparkPack 电弧特效 hai987789987 0 0 2017-06-22 11:47
举报投诉 资源链接不符 花落猛龙 0 0 2017-06-22 11:40
怪物模型 青龙坐骑,龙坐骑,牛逼的龙骑 b69693886 96 8 2017-06-22 11:37
版权维护【禁发】 zb4r8破解中文版 bingqiancg 0 0 2017-06-22 11:06
软件工具 Adobe CC 2017创意云软件大师版V2017.6版 Diss 43 10 2017-06-22 10:56
Unity3D 二战人物模型 70多个 hello照溪茗 24 4 2017-06-22 10:41
【鼓励师】专区 六月第一次弹药,我已经看见领导的小本本上写着我了 大芸彩 0 0 2017-06-22 10:37
举报投诉 2个付费链接,是哪个不对呢? 大芸彩 0 0 2017-06-22 10:31
场景模型 zb单体石块,有需要可以拿走!!!! zwk09156 34 3 2017-06-22 10:26
教程下载 概念环境艺术设计大师级绘画训练视频教程 Diss 98 28 2017-06-22 10:23
元素公告 禁止发布 一切关于 火星时代 的相关内容! 元素界王 46 0 2017-06-22 10:22
综合分享 本人收藏的像素非常高的圣诞素材,现拿出来分享,有png和jpg两种格式,详情请看截图 莫邪w 16 1 2017-06-22 10:21
教程下载 数字艺术绘画训练营视频教程合辑 Diss 137 40 2017-06-22 10:02
手游资源 漫威超级争霸战UI资源 atian 64 4 2017-06-22 10:02
巫妖王区 性感 美女 猫娘 羞耻的插入式尾巴[55P]129MB m955092 380 79 2017-06-22 09:32
独立角色 药摊,传奇药摊,灶台,鱼篓,草药,药材,食材,药店 b69693886 43 3 2017-06-22 09:21
【鼓励师】专区 新人鼓励师求六月份第二波弹药!~ 魔法禁书目录 0 0 2017-06-22 09:19
美女摄影 韩国女主播伊素婉写真照片另附送几个她的跳舞视频 桑德诺不在 127 24 2017-06-22 09:17
独立角色 熊猫时装,熊猫坐骑,熊猫皮肤,熊猫宠物 b69693886 42 1 2017-06-22 09:16
美女摄影 清纯美女海边免费8P 小龙鱼在飞 63 8 2017-06-22 09:14
巫妖王区 乳神女孩兜豆50P 小龙鱼在飞 22 1 2017-06-22 09:12
元素矿场 矿场咋回事,中子星收益怎么突然这么低,显示bug? loyant 41 10 2017-06-22 09:01
重复资源 日本画师ゑの 小性感萝莉大集合 qq546770 18 5 2017-06-22 09:00
举报投诉 发现 Ag教程 yktennasy 0 0 2017-06-22 08:51
欧美大神 幻想插画 蒂姆.怀特科幻插画集 daodan 49 8 2017-06-22 08:41
欧美大神 幻想插画 吉格尔异形插画集 daodan 24 3 2017-06-22 08:36
教程下载 某机构独家内部原画基础视频 王女大人 480 199 2017-06-22 08:25
日韩精品 690张头像免费分享,大家喜欢就拿去 王女大人 328 107 2017-06-22 08:11
巫妖王区 福利,二次元沙滩妹子cg欣赏 乖萌受。 101 8 2017-06-22 03:47
CG角色 司机们,R系极限MMD续集来了,打折咯,速度 258348726 161 24 2017-06-22 02:51
成套集合 Power Rangers 2017 djagripnos 44 10 2017-06-22 02:36
工业模型 暗黑刀锋 乐兔blake 28 7 2017-06-22 00:10
工业模型 高达同人高精度高模 乐兔blake 34 2 2017-06-21 23:43
工业模型 飞机USA plane 乐兔blake 13 3 2017-06-21 23:34
工业模型 红海军 乐兔blake 18 3 2017-06-21 23:31
工业模型 基洛夫空艇 乐兔blake 21 4 2017-06-21 23:20
工业模型 62种场景摆件模型 乐兔blake 59 11 2017-06-21 22:56
设定画集 真三国无双7设定集+cg人物模型+武器 齐全 yzwsuper 58 5 2017-06-21 22:47
欧美大神 意大利画师 Mirco Cabbia 作品集! Nymph 288 73 2017-06-21 22:27
工业模型 红色警戒3 升阳帝国陆军载具obj合集 乐兔blake 30 5 2017-06-21 22:22
举报投诉 举报资源过期不存在资源链接一个!!!!!!!!!!!!!! cg过客 1 0 2017-06-21 21:39
古典COS 【Cosplay】尼尔机械纪元 A2 cosplay 惊鸽 64 7 2017-06-21 21:25
【扩散者】专区 【扩散大招】2017年6月第一次 a2577 12 1 2017-06-21 21:12
骑宠模型 传奇坐骑,暗夜坐骑,恐龙坐骑 c69693886 82 11 2017-06-21 20:54
装饰物件 Z造型 装扮 游戏 影视剧照【1676P】 空空如也不知处 44 7 2017-06-21 19:54
线稿时代 线稿合集【4760P】 空空如也不知处 176 19 2017-06-21 19:12
企业招聘 诚聘 成都黑石纪数码诚聘3D角色\场景美术师大神 黑石纪 0 0 2017-06-21 19:05
巫妖王区 私房凸小妞40P 小龙鱼在飞 40 3 2017-06-21 19:02
Q萌主义 手游【三国罗曼史】卡牌原画 整理高清 jpg sahen 81 8 2017-06-21 18:48
元素知道 求助,如何吧魔法阵更改成立体的样子 kiycx 17 3 2017-06-21 18:42
举报投诉 侵权视频举报 xl861122 0 0 2017-06-21 18:21
服务商 成都黑石纪诚接各类3D美术外包 欢迎砸包 一口大果子 0 0 2017-06-21 18:04
原创3D作品 做的几个瓷器 沸腾吧 22 1 2017-06-21 18:04
技术文章 每一个时尚圈的设计师,都是一枚闪闪发光的蛇精病... indulge-Arrogan 34 4 2017-06-21 17:59
日韩精品 新!2B合集+wlop鬼刀系列+WojtekFus+自用壁纸合集+其他(共1893P) qwertxyz 408 88 2017-06-21 17:35
原创3D作品 作品更新,欢迎大神前来吐槽与指导 quan6422 145 21 2017-06-21 17:26
美女摄影 妖精映畫-黑絲美腳 liumo1 74 7 2017-06-21 17:26
综合分享 maya场景建模教程 九天玄仙sky 25 3 2017-06-21 17:06
游戏新闻 最终幻想15》VR版: 钓鱼竟然这么蠢萌有趣 duokesanu 16 1 2017-06-21 17:02
综合分享 sp贴图教程 九天玄仙sky 32 2 2017-06-21 16:59
举报投诉 链接失效,求退金币 liumo1 0 0 2017-06-21 16:47
Unity资源 dota 魔兽风格场景 rancepenn 37 4 2017-06-21 16:42
成套集合 一套高质量翅膀 希望对大家有帮助 &温柔叙述 41 2 2017-06-21 16:20
独立角色 DOA5 Tina 383704178 31 3 2017-06-21 16:16
Unity资源 q版 卡通水 water u3d rancepenn 43 3 2017-06-21 16:13
举报投诉 链接失效,请求退币 awpzzggg 0 0 2017-06-21 16:13
Unity3D Unity3d Low+Poly+Water+-+Mobile+VR+PC sahen 197 10 2017-06-21 16:09
游戏新闻 上古卷轴5: 天际VR》PS VR版开启预购 duokesanu 13 2 2017-06-21 15:54
重复资源 卡通 城市 房子 rancepenn 16 1 2017-06-21 15:40
原创2D作品 男精灵草图一枚 心在跳动 31 4 2017-06-21 15:22
独立角色 欧美风妹子 383704178 83 12 2017-06-21 15:17
独立角色 分享一波漂亮的小姐姐 暮色遮天 120 6 2017-06-21 15:08
举报投诉 链接失效 zk961811176 0 0 2017-06-21 15:05
日韩精品 08年全球游戏美术比赛2D组前50强 眸人语 37 8 2017-06-21 14:58
日韩精品 【周三福利免费送】人物、建筑、技巧、武器素材的收集,不要币大放送! av7402010 239 59 2017-06-21 14:57
举报投诉 资源重复 风干了双刀 0 0 2017-06-21 14:57
日韩精品 08年全球游戏美术比赛3D组前50强(DOMINANCEWAR3) 眸人语 27 3 2017-06-21 14:56
东方神韵 09年全球游戏美术比赛的第一名的中国选手G.J的其他作品 眸人语 64 23 2017-06-21 14:54
独立角色 一个某游戏里面比较漂亮的韩国美女模型 383704178 56 5 2017-06-21 14:53
东方神韵 09年全球游戏美术比赛3D和2D前75名作品(DOMINANCEWAR4) 眸人语 40 8 2017-06-21 14:53
元素矿场 矿场bug winner 38 7 2017-06-21 14:44
成套集合 剑网三部分合集 L鹿九J 35 4 2017-06-21 14:40
独立角色 剑网三五毒萝莉 L鹿九J 20 2 2017-06-21 14:30
独立角色 剑网三万花萝莉 L鹿九J 8 1 2017-06-21 14:23
怪物模型 诛仙二模型--召唤兽荒原狼 L鹿九J 43 6 2017-06-21 12:27
独立角色 超迥异女娲娘娘 L鹿九J 32 4 2017-06-21 12:24
成套集合 大唐无双主角 L鹿九J 20 1 2017-06-21 12:22
独立角色 龙坐骑 L鹿九J 19 1 2017-06-21 12:14
综合分享 分享一个上传模型免费的变形金刚5电影票的活动!而且还是两张!!! 此方可嫁 0 0 2017-06-21 12:07
成套集合 灵夙合集 卡通女孩 383704178 19 2 2017-06-21 12:01
举报投诉 链接失效,请退币 烽冥鸦 0 0 2017-06-21 11:58
企业招聘 广州墨影网络科技有限公司招聘2D、3D场景 墨影77 11 1 2017-06-21 11:43
独立角色 FF12最终BOSS L鹿九J 35 3 2017-06-21 11:41
独立角色 女夫人 L鹿九J 28 3 2017-06-21 11:36
独立角色 中国小小 L鹿九J 17 2 2017-06-21 11:33
独立角色 战马 L鹿九J 14 2 2017-06-21 11:31
独立角色 佣兵老大-杰拉德 L鹿九J 23 3 2017-06-21 11:27
技术文章 【疑难求助】新手教学 3ds max怎么翻转法线 983073948 3 1 2017-06-21 11:23
独立角色 天堂2boss L鹿九J 27 3 2017-06-21 11:20
独立角色 墨衣女官 L鹿九J 28 3 2017-06-21 11:14
举报投诉 全民超神模型01 -失效链接 Acolait 0 0 2017-06-21 11:13
独立角色 凯莉 L鹿九J 23 5 2017-06-21 11:11
独立角色 盔甲战士带动作文件 L鹿九J 19 3 2017-06-21 11:08
独立角色 士兵 L鹿九J 15 2 2017-06-21 10:58
独立角色 超可爱妹子 q1996 33 2 2017-06-21 10:45
东方神韵 大话西游2经典版 长生诀 仙鹤坐骑 wyscg 20 2 2017-06-21 10:41
举报投诉 链接失效 qq345722700 0 0 2017-06-21 10:38
拼图元素 中式写实古风场景拼图素材1G【植物、建筑、地面、物件】 张鱼丸子 58 10 2017-06-21 10:20
UE虚幻 UE4构建光照的国外优秀作品 ivansong 37 3 2017-06-21 10:00
场景模型 圆木zb高模喜欢的拿走! zwk09156 57 7 2017-06-21 09:50
技术文章 【创意云】制作液体教程【白酒、红酒、葡萄酒】总有一款适合你 qq412732261 10 1 2017-06-21 09:46
教程下载 bodypaint 3D 中文教程 383704178 124 15 2017-06-21 09:41
原创2D作品 早起一小时练习 罗尼库尔曼 48 6 2017-06-21 09:38
独立角色 翅膀,手游翅膀,低模翅膀,手绘翅膀30个 b69693886 195 19 2017-06-21 09:36
综合分享 无聊收集 986395 34 5 2017-06-21 09:33
综合分享 无聊收集 986395 19 3 2017-06-21 09:31
综合分享 无聊收集 986395 17 1 2017-06-21 09:29
综合推荐 无聊收集 986395 19 1 2017-06-21 09:27
综合分享 日韩原画收集!喜欢的可以收下 zwk09156 34 5 2017-06-21 09:26
综合分享 无聊收集 986395 22 3 2017-06-21 09:26
综合分享 无聊收集 986395 18 1 2017-06-21 09:24
生活交流 双马尾-- Emma瑶瑶 38 6 2017-06-21 09:23
成套集合 洛奇英雄传模型合集 383704178 216 13 2017-06-21 09:22
综合推荐 收集 986395 23 3 2017-06-21 09:20
CG角色 无聊收集 986395 40 5 2017-06-21 09:06
综合推荐 一些插画杂集 daodan 25 8 2017-06-21 08:44
欧美大神 幻想插画 弗兰克.弗雷泽塔魔幻插画集 daodan 32 5 2017-06-21 08:39
举报投诉 链接失效 nu3388nu3388 0 0 2017-06-21 07:58
元素矿场 7点47分,领取矿石貌似出bug了 loyant 21 2 2017-06-21 07:55
设定画集 【Dragon Age:Inquisition龙腾世纪:审判】设定画集 夏虫予冰 69 14 2017-06-21 07:43
教程下载 maya次世代制作游戏场景中的战车教程 小小小芳 186 31 2017-06-21 00:00
原创3D作品 UE4场景练习 白北一介 54 12 2017-06-20 23:54
CG角色 鲨漫游戏 robin1124 23 2 2017-06-20 22:56
企业招聘 诗悦网络诚招u3d场景原画设计师(纯手绘 低模) shiyuegame 0 0 2017-06-20 21:49
综合分享 各种车2 宅邪皇 23 4 2017-06-20 20:54
综合分享 开车姿势参考 宅邪皇 55 7 2017-06-20 20:53
场景模型 香港城市 三百六十T 31 3 2017-06-20 20:44
古典COS 【Cosplay】大X美女霸气COS《英雄联盟》 惊鸽 227 15 2017-06-20 20:32
技术文章 VR日报 zml 33 3 2017-06-20 19:46
美女摄影 【美女摄影】“电竞第一女神”孙妍泳装首秀 惊鸽 296 19 2017-06-20 19:36
书籍教程 肌肤上色技巧 leander 39 2 2017-06-20 19:25
线稿时代 手绘插画 欧美 创意动物 彩铅与水彩画 配色 不忍/否定姬 78 14 2017-06-20 19:14
日韩精品 路人女主的养成方法素材 双江极品家 132 28 2017-06-20 19:09
欧美大神 无敌破坏王图包 七冻灭炎师 52 6 2017-06-20 19:05
美女摄影 白色丝袜人娇俏20P 小龙鱼在飞 245 18 2017-06-20 17:52
美女摄影 靓丽美女佳嘉48P 小龙鱼在飞 132 15 2017-06-20 17:49
东方神韵 【游戏角色原画设定】第四弹-极品176张 904371088 977 346 2017-06-20 16:40
场景模型 复合弓 ArNing 12 1 2017-06-20 16:29
巫妖王区 2B+wlop鬼刀系列+WojtekFus+自用壁纸合集(共1296P) qwertxyz 271 53 2017-06-20 16:26
举报投诉 链接失效 rockdoll 0 0 2017-06-20 16:01
举报投诉 文件打不开~ a282409290 0 0 2017-06-20 15:30
版权维护【禁发】 ZBrush4 R8数字雕刻和绘画软件终极修复版 applehu 0 0 2017-06-20 15:20
场景模型 情(pian)怀(qian)巨制!看帖请带上耳机。自行脑补游戏名字就好了!! ★恋人未满☆ 604 31 2017-06-20 14:48
综合推荐 少女前线同人绘图和壁纸整理 大猫 93 15 2017-06-20 13:45
失效资源 原画网络部教程合集 clearrrrrrr 55 5 2017-06-20 13:25
欧美大神 [决斗英雄(Duelyst)]官方海报(场景及人设)-52P 夏虫予冰 86 18 2017-06-20 13:17
综合分享 人体基础教程合集 clearrrrrrr 52 5 2017-06-20 13:15
综合分享 素描教程合集 clearrrrrrr 6 1 2017-06-20 13:10
综合分享 日系插画漫画教程合集 clearrrrrrr 37 4 2017-06-20 13:06
举报投诉 链接里没东西 zk961811176 0 0 2017-06-20 13:02
失效资源 色彩理论教程 clearrrrrrr 30 3 2017-06-20 12:58
巫妖王区 少女映畫 liumo1 65 6 2017-06-20 12:27
【扩散者】专区 【扩散大招】2017年6月第2次 18650007502 0 0 2017-06-20 12:24
教程下载 ZBrush 卡通美女建模高级教程 建模上篇 yy53859033 40 3 2017-06-20 12:22
手游资源 棋牌游戏新资源 a346834631 45 31 2017-06-20 12:00
电子刊物 科幻数字艺术杂志2017年8月刊 Diss 101 22 2017-06-20 12:00
教程下载 Maya结合ZBrush女性次世代游戏角色建模英文视频教程 denyao 101 9 2017-06-20 11:56
独立角色 max 人物男女裸模 zwk09156 43 5 2017-06-20 11:13
举报投诉 重复贴 请叫我搬运工 0 0 2017-06-20 11:11
教程下载 Unity轻松上手制作开发游戏视频教程 Diss 68 16 2017-06-20 11:00
技术文章 【创意云】渲染V-Ray折射【惊不惊喜,意不意外】 qq412732261 20 2 2017-06-20 10:39
日韩精品 20位大神作品 柚子树 170 28 2017-06-20 10:09
日韩精品 精美创意塔罗卡牌 宫崎骏 萌猫键客 51 5 2017-06-20 10:03
教程下载 MARI与Maya高效纹理制作视频教程 Diss 93 20 2017-06-20 10:00
举报投诉 举报一个重复贴!!!希望版主尽快处理,维护我首发的权益! 李未央 29 1 2017-06-20 09:55
举报投诉 发现无效贴,里边没东西 yuanxu49 0 0 2017-06-20 09:12
欧美大神 幻想插画 克里斯.摩尔幻想插画集 daodan 29 7 2017-06-20 09:01
AE模版 炫酷灰尘魔法烟雾火花AE特效粒子生成器预设包AE模板 Diss 610 222 2017-06-20 09:00
教程下载 3dsmax灯光照明技术基础核心训练视频教程 Diss 74 23 2017-06-20 08:00
成套集合 一套不知名的欧风魔幻手游成套角色模型 0HL0 147 17 2017-06-20 02:07
举报投诉 链接失效 zheshiliu 0 0 2017-06-20 00:45
古典COS 发些旗袍的 loyant 44 8 2017-06-20 00:19
材质贴图 Head Textures 高清写实人物贴图。(打包) qqwyn001 116 8 2017-06-19 21:34
成套集合 斗战神合集 ??? 102 15 2017-06-19 21:11
举报投诉 链接失效 levershow 3 2 2017-06-19 20:58
Unity资源 unity非洲动物包 三百六十T 21 4 2017-06-19 20:37
举报投诉 帖子链接失效 大芸彩 0 0 2017-06-19 20:37
材质贴图 自己收集的一些c4d贴图 1811903049 26 2 2017-06-19 19:54
材质贴图 人物贴图 1811903049 30 2 2017-06-19 19:51
美女摄影 艾米莉亞97P liumo1 129 13 2017-06-19 19:32
精美壁纸 生化危机、达昂夫妇。 971126 32 8 2017-06-19 19:30
举报投诉 文件不存在,申请退币 夏倪玛参虎 0 0 2017-06-19 19:20
怪物模型 泰坦之旅 全套模型 ??? 71 9 2017-06-19 18:57
材质贴图 瓦片、石头 3D电子 42 10 2017-06-19 18:11
超级集合 pbr贴图大概在100g左右 1811903049 51 6 2017-06-19 18:01
元素知道 谁知道下图那个是什么插件? 3D电子 46 6 2017-06-19 17:29
巫妖王区 啪喵少女(23P+3V) liumo1 29 5 2017-06-19 17:17
【扩散者】专区 【扩散大招】2017年6月第一次 troygu 10 1 2017-06-19 17:02
VR讯息 1小时30元! 全球首家VR影院在国美开业 duokesanu 19 1 2017-06-19 16:59
游戏新闻 《蜘蛛侠: 归来》VR版来了! 6月30日免费上线 duokesanu 46 3 2017-06-19 16:44
欧美大神 精品游戏原画丨美国画师作品欣赏 silucgcwy 39 7 2017-06-19 16:43
元素知道 有没有初学教程 troygu 10 1 2017-06-19 16:40
巫妖王区 少女映畫實體本部分未收入內容 衰退喵 liumo1 88 4 2017-06-19 16:37
游戏参考 wow 眸人语 21 3 2017-06-19 16:20
动画技术 来一套表情特写动画参考 mooooool 33 1 2017-06-19 16:18
游戏参考 魔兽争霸Icons 眸人语 39 7 2017-06-19 16:17
日韩精品 俄罗斯日式场景大神Arseniy Chebynkin作品57P,张张都是壁纸级 giko520 116 20 2017-06-19 16:15
CG角色 BGE实时效果,虽然水平有限,但是还是混出点效果来感觉。 Drea 77 9 2017-06-19 16:13
举报投诉 失效资源,付费后不能下载,求退币 oyai 0 0 2017-06-19 15:53
举报投诉 网盘失效,求退金币或补档 yakumoyou 0 0 2017-06-19 15:31
举报投诉 重复贴 请叫我搬运工 0 0 2017-06-19 15:27
场景模型 星空建筑 眸人语 78 12 2017-06-19 15:23
巫妖王区 狂三護士白絲 liumo1 179 20 2017-06-19 15:23
场景模型 科幻场景 60个科幻类建筑部件 黄金圣主 54 10 2017-06-19 15:19
手游资源 免费场景素材 9comcom 50 7 2017-06-19 15:12
举报投诉 unity3d-次时代左轮手枪 Revolver 失效 退币 htx1993601 0 0 2017-06-19 15:00
游戏参考 001 传奇物品高清版595P 眸人语 63 14 2017-06-19 14:47
举报投诉 SketchUp 2017全面核心训练视频教程 烧纸君 0 0 2017-06-19 14:44
申请区 申请道具装备 剑爆膀胱 0 0 2017-06-19 14:26
独立角色 初音未来 q1996 45 6 2017-06-19 14:20
传统绘画 卡通素描 daodan 32 5 2017-06-19 14:12
传统绘画 近腾喜文纸绘 daodan 29 8 2017-06-19 14:05
举报投诉 文件需解压密码,,退币 青丘染 0 0 2017-06-19 14:02
图标ICON 一套传奇类写实游戏图标 张鱼丸子 32 4 2017-06-19 13:51
独立角色 小可爱 q1996 44 5 2017-06-19 13:50
古典COS C81 下限少女 莲妹cos loyant 90 15 2017-06-19 13:03
美女摄影 OLINAR_Platonoff_Unforgettable liumo1 34 3 2017-06-19 12:26
美女摄影 61726 liumo1 32 5 2017-06-19 12:11
美女摄影 61727 liumo1 67 8 2017-06-19 12:08
美女摄影 伊甸园摄影映像 liumo1 19 2 2017-06-19 12:05
巫妖王区 李梓熙摄影师宇航员作品 liumo1 46 6 2017-06-19 12:02
每日涂鸦练习 速写练习 萌萌堂 39 6 2017-06-19 11:57
重复资源 肥猫坐骑一只 眸人语 16 1 2017-06-19 11:33
美女摄影 韩国模特女性参考服装设计参考LYJ chunhui518 222 37 2017-06-19 11:24
重复资源 54个高清精品天空盒子贴图4096*1024 hatitu 110 19 2017-06-19 11:03
教程下载 男士头脸绘画过程 missj001 98 18 2017-06-19 11:02
举报投诉 链接失效退币 -Circle_。 0 0 2017-06-19 10:44
欧美大神 一组可爱小女孩cg图 1811903049 45 5 2017-06-19 10:43
超级集合 一些木纹布纹的高清贴图,污渍笔刷还有 uv拆分插件安装包 1811903049 43 7 2017-06-19 10:29
服务商 成都U3D虚拟现实(VR & AR)增强现实寻找合作的小伙伴。 634054898 0 0 2017-06-19 10:19
东方神韵 三国杀图集【921P】 空空如也不知处 82 10 2017-06-19 10:17
教程下载 14 Cynthia Sheppard视频教程(带字幕) 最在意的谁 73 10 2017-06-19 09:53
教程下载 僵尸骑士绘制教程 最在意的谁 107 17 2017-06-19 09:45
申请区 一波小贴申请精华,盖章 空色碧落 46 4 2017-06-19 09:40
每日涂鸦练习 练习 阳子的天空 44 4 2017-06-19 09:38
超级集合 大量高清金属污渍,金属底纹,金属锈迹贴图 1811903049 79 11 2017-06-19 09:36
每日涂鸦练习 又是一周上班时.嘀~ 老蔡珊 52 5 2017-06-19 09:29
超级集合 自己收藏的几百钟zb笔刷和ps笔刷 1811903049 67 10 2017-06-19 09:27
画笔资源 zbrush预制笔刷+大师级UI一套 O^勿愚人 99 9 2017-06-19 09:26
美女摄影 美女妮妮13P 小龙鱼在飞 57 11 2017-06-19 09:22
游戏新闻 为童年情怀买单,《魂斗罗》值得这个价吗? wyl2615 34 2 2017-06-19 09:22
综合分享 完美动力材质视频带工程 1811903049 22 2 2017-06-19 09:09
美女摄影 婀娜身姿秀丽影39P 小龙鱼在飞 29 5 2017-06-19 09:08
美女摄影 猫咪女生50P 小龙鱼在飞 27 5 2017-06-19 09:06
美女摄影 韩国人体建模参考 yhtggg 56 6 2017-06-19 08:39
重复资源 重复:方块人 卡通军事战争基地 角色场景 huadiandong 56 4 2017-06-19 08:34
申请区 活跃度和水晶矿 call_me丶energy 0 0 2017-06-19 08:31
传统绘画 国内儿插师作品6 daodan 0 0 2017-06-19 08:26
申请区 申请水晶矿成就 钢铁大叔 0 0 2017-06-19 08:17
重复资源 重复:unity3d 次时代工业模型拉杆 机械场景3D素材 游戏美术模型贴图 huadiandong 35 4 2017-06-19 08:17
每日涂鸦练习 涂鸦(终于学会连续发图了,之后就发这了。) 百听 98 19 2017-06-19 04:41
火热推荐 2017年E3游戏展高清视频 chen1234cs 0 0 2017-06-19 01:59
欧美大神 【】俄罗斯=Aleksey Bayura大神】-50P 夏虫予冰 93 17 2017-06-19 00:33
日韩精品 【韩国画师Kyoung Hwan Kim大神】角色设定 - 130P 夏虫予冰 132 22 2017-06-19 00:26
每日涂鸦练习 涂鸦 百听 57 9 2017-06-18 23:08
独立角色 可爱艾琳妹子哟,带动画和骨骼!!!! q1996 160 20 2017-06-18 22:33
原创3D作品 细节不够啊 红尘过客 59 8 2017-06-18 22:28
元素矿场 从收益来看,金刚石收益还比不过金矿 loyant 67 12 2017-06-18 22:22
Unity资源 Unity大型科幻飞船 shui861 154 6 2017-06-18 21:49
精美壁纸 福利阿坷、就分享一张。 971126 147 24 2017-06-18 21:41
UE虚幻 UE4 虚幻4建筑可视化室内源文件 内附材质模型蓝图 shui861 19 3 2017-06-18 21:36
材质贴图 草图大师Sketchup 铺装石材地板布料墙面型材质贴图 SU室内外素材 shui861 18 3 2017-06-18 21:33
古典COS 【Cosplay】超火辣《尼尔》A2大姐姐COS,肉感十足美臀诱惑 惊鸽 339 30 2017-06-18 21:29
UE虚幻 UE4高质量室内场景漫游有交互换材质素材 shui861 25 4 2017-06-18 21:26
元素知道 初來乍到<測試貼~ purfate 0 0 2017-06-18 21:04
美女摄影 【美女摄影】国内大X萌妹COS黑贞德,再挤挤衣服都要撑破了 惊鸽 79 15 2017-06-18 20:15
原创2D作品 发布点自己的画 万一有人喜欢呢 雕兄 105 21 2017-06-18 19:24
综合模型 各种人物坐骑模型 淡定666 46 4 2017-06-18 19:20
元素矿场 矿场--怪物变异了 元素界王 373 60 2017-06-18 17:33
美女摄影 【美女摄影】夏美酱大XS身显露异岛风情 惊鸽 118 17 2017-06-18 17:29
教程下载 After Effects CC教程录屏 详细中文讲解 佐伊sunny 130 32 2017-06-18 17:00
传统绘画 国画绝美大幅山水欣赏-1TB高清国画图库 1039684198 62 5 2017-06-18 16:24
举报投诉 资源失效 -0.0- 0 0 2017-06-18 16:22
成套集合 现代q版三转二精品资源 huadiandong 57 4 2017-06-18 16:05
成套集合 日韩风q版全套怪物 骑士物语 huadiandong 42 2 2017-06-18 16:03
日韩精品 画师 かみみや 作品集!60P Nymph 379 68 2017-06-18 14:46
传统绘画 最全名家大作,喜欢传统美术的不可错过哦 鱼灬 92 12 2017-06-18 14:40
巫妖王区 150个G的写真集 推女郎 第四印象 riso图片视频都有 断唧唧 48 6 2017-06-18 14:15
设定画集 魔兽世界原画分享 gzezoixx174 24 3 2017-06-18 13:33
传统绘画 国内儿插师作品5 daodan 13 2 2017-06-18 13:22
教程下载 ZBrush (奇异博士) Wong雕刻 (渣。波) 153 20 2017-06-18 12:40
元素知道 有没有变形金刚的模型 jnv749 0 0 2017-06-18 11:56
独立角色 无码能撸第五弹!!哥特小萝莉与巨大镰刀的传奇大冒险,萝莉与金属的结合,你懂的~! av7402010 324 56 2017-06-18 11:51
教程下载 3dmax 法线贴图烘焙技巧教学 谱写青春 130 17 2017-06-18 11:37
独立角色 庞然大物!工口魔幻女剑士,水下谁知道~~!附带PSD贴图 av7402010 151 22 2017-06-18 11:36
举报投诉 链接失效退币 zeromaya 0 0 2017-06-18 11:26
欧美大神 美国概念艺术家Atey Ghailan/snatti作品集 分享 wplus1 115 14 2017-06-18 10:44
美女摄影 沙漠中之美女36P 小龙鱼在飞 140 14 2017-06-18 10:41
美女摄影 贝拉苏梅岛写真48P 小龙鱼在飞 105 7 2017-06-18 10:38
美女摄影 浴缸蛋糕写真60P 小龙鱼在飞 65 6 2017-06-18 10:34
古典COS 荷塘妹子 loyant 67 11 2017-06-18 09:36
举报投诉 截图4张的资源实际内容一个也没有,有严重误导嫌疑 歪歪贼 0 0 2017-06-18 09:32
设定画集 Shining Resonance (光明之响) 地球的内功 16 2 2017-06-18 09:04
设定画集 (Last.Exile.-.Aerial.Log.Artbook)[DPG][896E81BB][村田莲尔] 地球的内功 38 6 2017-06-18 08:20
设定画集 Phantom Breaker Official Visual Works 设定集 地球的内功 21 2 2017-06-18 07:41
举报投诉 链接失效求退币 xx751892085 0 0 2017-06-18 04:09
设定画集 剑风传奇剧场版设定集 キヤラクター編 MCronqvist 48 4 2017-06-18 02:37
举报投诉 举报这个资源网盘失效,请退币或补充资源 suowenwoi 0 0 2017-06-18 01:23
申请区 申请查询矿镐 qazrdx 18 1 2017-06-18 00:51
申请区 申请兑换1000活跃度 tera7 0 0 2017-06-18 00:42
地图场景 西游破坏神-275MB(27P) sy2286 125 28 2017-06-17 23:14
日韩精品 洛奇英雄传原画加壁纸383p 疯狂的雪糕 104 8 2017-06-17 22:42
技术文章 怎么作2D动画会让布料,头发的运动更自然?这个软件会自动生成 18650007502 47 4 2017-06-17 21:53
日韩精品 自行收集精品日韩风原画! 猫仔瓜瓜 91 23 2017-06-17 21:43
教程下载 Newey韩风绘画教程 猫仔瓜瓜 177 25 2017-06-17 21:33
游戏新闻 如何模拟城市?《模拟城市》的程式逻辑 jiangzi 18 3 2017-06-17 21:16
设定画集 AH!_MY_GODDESS《我的女神资料设定集》 地球的内功 108 21 2017-06-17 20:41
巫妖王区 柚木寫真 全部图片真的是惊艳到了 liumo1 160 14 2017-06-17 19:54
申请区 兑换1000土豪金元素币,麻烦了 Johanna521 0 0 2017-06-17 19:26
场景模型 山洞场景uUnity mzj448987485 41 3 2017-06-17 19:06
举报投诉 资源失效 求退币 freetime 0 0 2017-06-17 18:47
美女摄影 冰激凌2011.10.31 liumo1 76 7 2017-06-17 18:41
美女摄影 米爱 liumo1 59 5 2017-06-17 18:25
巫妖王区 嘟嘟 liumo1 27 3 2017-06-17 18:14
举报投诉 Maya精细头发实例训练视频教程 的解压密码是错误的 9_Crimes 0 0 2017-06-17 17:50
巫妖王区 羞耻的外滩公园 高清图[77P]+视频[mp4/398M] m955092 227 25 2017-06-17 17:13
巫妖王区 [福利]WANIMAL 官方出品 3月VIP套图 liumo1 97 5 2017-06-17 17:09
巫妖王区 圣诞老人的麋鹿们 [165P/857MB] m955092 40 3 2017-06-17 17:02
美女摄影 极品超级嫩粉CutieQueen VIP liumo1 97 5 2017-06-17 16:56
举报投诉 9颗高精度枫树模型 百度链接内容失效了,申请退币 几墨影 5 0 2017-06-17 16:23
设定画集 《海贼王资料设定集》(红.蓝共两本)(ONE.PIECE)[尾田荣一郎] 地球的内功 86 12 2017-06-17 16:16
巫妖王区 芝芝 liumo1 93 9 2017-06-17 16:16
美女摄影 lucici liumo1 45 3 2017-06-17 15:44
巫妖王区 福利姬小甜心福利图包 liumo1 145 9 2017-06-17 15:34
美女摄影 61605 liumo1 37 4 2017-06-17 15:28
美女摄影 傲娇萌萌 liumo1 23 2 2017-06-17 15:23
元素知道 急急急, 求王者荣耀王者峡谷里的大龙龙坑的模型。有的大神请拿来,价格好说 去玩儿企鹅温柔 55 3 2017-06-17 15:14
地图场景 称霸天下游戏地图 尚冲 35 4 2017-06-17 15:12
地图场景 雪鹰领主新手村地图 尚冲 67 10 2017-06-17 15:09
重复资源 寒刀游戏地图 尚冲 36 4 2017-06-17 15:00
设定画集 梦工厂奇幻动画<驯龙高手>设定集(全) 地球的内功 35 11 2017-06-17 14:45
欧美大神 插画 和卡牌合集【4997P】 空空如也不知处 317 26 2017-06-17 14:40
举报投诉 大主宰男主角20 不能下载 稀有元素 0 0 2017-06-17 13:37
电子刊物 3D世界艺术杂志2017年8月刊 Diss 102 27 2017-06-17 13:37
武器模型 经典游戏武器枪械3D模型合辑 Diss 81 21 2017-06-17 13:29
古典COS 貂蝉cos loyant 37 6 2017-06-17 13:20
Unity3D Unity Anti-Cheat Toolkit v1.5.0.6 刘建业 19 3 2017-06-17 13:07
手游资源 质量很高的《乱轰三国志》全套美术资源!只发精品! 775054634@qq.co 49 8 2017-06-17 13:04
教程下载 Maya精细头发实例训练视频教程 Diss 445 198 2017-06-17 12:40
美女摄影 阴阳师 liumo1 51 6 2017-06-17 12:35
巫妖王区 土豆姐 liumo1 25 3 2017-06-17 12:11
科幻世界 Zbrush 4R8大师级精美制作效果图合辑 Diss 154 19 2017-06-17 12:00
日韩精品 黑丝!!!!! BUNNY IROIRO 超高清19p~ 地球的内功 249 46 2017-06-17 11:27
图文教程 实际经验告诉你:美国概念设计学校的学习和设计模式~ 首席游骑兵 76 8 2017-06-17 11:23
插件与资源 特效资源包大集合免费送 晓月柠 3 1 2017-06-17 11:08
失效资源 蒲贵-第五期网络班建模教程(独家完整版-非淘宝虚假五期且不全) 谱写青春 87 7 2017-06-17 10:43
独立角色 天蓬元帅20个动作 免费 MAX Fbx 晓月柠 44 6 2017-06-17 09:39
教程下载 官方画家Nikko的iPad pro+ Pencil视频教程配套笔刷 MISO 200 41 2017-06-17 04:59
教程下载 STEVE HUSTON大师的人体绘画视频教程 MISO 348 90 2017-06-17 04:40
每日涂鸦练习 涂鸦练习 百听 31 10 2017-06-17 04:35
软件工具 Autodesk_Maya_2017_Update4 mayar1 6 1 2017-06-17 01:25
设定画集 辐射4设定全集共537张. elflof 46 5 2017-06-16 23:27
书籍教程 《色彩与光线》 六六六六六咯 116 23 2017-06-16 23:25
场景模型 天使小屋 有生之年 40 12 2017-06-16 21:38
场景模型 箭塔 有生之年 43 10 2017-06-16 21:22
美女摄影 越南旅拍免费28P 小龙鱼在飞 68 4 2017-06-16 21:05
美女摄影 邻家女孩46P 小龙鱼在飞 87 9 2017-06-16 20:58
东方神韵 同样的IP,不同的品质丨《Unruly Heroes》游戏介绍 空空如也不知处 39 6 2017-06-16 20:50
元素知道 请看下图,求大神帮忙解答! 3D电子 24 4 2017-06-16 19:49
举报投诉 投诉 标识者有骨骼 有动画 结果买下来是个空壳 投诉 o314450452 0 0 2017-06-16 19:22
线稿时代 动态人体体形参考 人体绘画练习资源 线稿美术素材 七冻灭炎师 119 22 2017-06-16 19:20
地图场景 一千张中国古风游戏插画场景设计设定参考素材 双江极品家 76 9 2017-06-16 18:48
线稿时代 食之道 手绘食物图 色!香!味!意!形! 天天旋风1314 70 9 2017-06-16 18:39
版权维护【禁发】 ZBrush4R8中文版 流年 0 0 2017-06-16 18:23
欧美大神 浓郁欧美风《俄罗斯概念设计师Ekaterina Shapovalova作品欣赏 》 空空如也不知处 29 4 2017-06-16 18:10
举报投诉 使命召唤的百度链接内容失效了 我要退1000币 cwp1232 5 1 2017-06-16 18:09
CG模型 Realistic Alien 6 - 3D Model chyven 28 4 2017-06-16 18:00
原创2D作品 几个美食手绘练习 癫风舞者 109 16 2017-06-16 17:48
重复资源 日韩风插画PSD源文件大赏,学习必备-169个=6G xiaopipi0397 3 1 2017-06-16 17:34
原创2D作品 女鬼终于变女孩了 心在跳动 303 21 2017-06-16 17:24
Q萌主义 萌的心痒痒《新加坡插画师JR Pencil作品欣赏》【289P】 空空如也不知处 121 15 2017-06-16 17:02
Q萌主义 死神人物立绘,不错的资源【397P】 lac1991 88 8 2017-06-16 17:02
成套集合 神魔大陆的一大波怪物集合 眸人语 45 5 2017-06-16 16:29
综合分享 加拿大画师游戏原画作品欣赏 silucgcwy 15 2 2017-06-16 16:22
综合分享 PS基础教程 qq1184323172 38 8 2017-06-16 16:19
服务商 成都黑石纪诚接各类3D美术外包 欢迎砸包 一口大果子 0 0 2017-06-16 16:07
企业招聘 诚聘 成都黑石纪数码诚聘3D角色\场景美术师大神 黑石纪 2 1 2017-06-16 16:02
元素知道 3Dmax材质球变黑是怎回事?求大神解答 3D电子 38 8 2017-06-16 15:59
欧美大神 美国插画师 john-grello 作品 mtps80 37 5 2017-06-16 15:58
游戏新闻 暗杀章鱼老师的机会来了! 《暗杀教室VR》上线 duokesanu 16 2 2017-06-16 15:57
美女摄影 絶対領域 Amazon限定版 [青山裕企]高清套图 liumo1 69 7 2017-06-16 15:56
手游模型 死神 阿散井恋次 模型+动画+贴图 a1104499749 45 4 2017-06-16 15:31
动画资源 死神资源,井上织姬模型+贴图+动画 a1104499749 31 3 2017-06-16 15:27
举报投诉 虚假内容贴,求退币 xrty05 8 1 2017-06-16 15:27
动画资源 死神黑崎一护模型+动作+贴图拳套资源 a1104499749 78 4 2017-06-16 15:21
举报投诉 失效贴,百度网盘失效 xrty05 0 0 2017-06-16 15:19
美女摄影 【福利贴】清纯妹子性感美女青春少女模特写真都在这:png和gif+150M+发帖新人多多... 翔上一枝花 679 61 2017-06-16 15:19
失效资源 创世西游模型集合32MB 眸人语 61 11 2017-06-16 14:55
欧美大神 美国插画师hicham-habchi 的作品 mtps80 48 13 2017-06-16 14:39
版权维护【禁发】 ZBrush 4r8,你懂得的。 隔壁的老王 0 0 2017-06-16 14:26
举报投诉 下载了用不了 TseChungKoon 0 0 2017-06-16 14:15
生活交流 晴天诶--- Emma瑶瑶 72 13 2017-06-16 14:05
生活交流 分享我的小伙伴 夺命小白兔 36 6 2017-06-16 14:04
设定画集 魔兽世界原画分享 gzezoixx174 31 4 2017-06-16 13:53
技术文章 转载~~设计文章:《纪念碑谷2》配色整理 空空如也不知处 67 6 2017-06-16 13:41
Unity资源 unity3d冰冻堡垒场景模型包Frozen Fortress - Environment 1.0 zeromaya 196 45 2017-06-16 13:41
传统绘画 国内儿插师作品4 daodan 21 4 2017-06-16 13:33
综合分享 日漫插画教程,PS SAI基础教程 谱写青春 39 3 2017-06-16 13:33
动画技术 断断续续制作了两个月的舞蹈动画,总算把第一阶段做完了 persisent 42 6 2017-06-16 13:01
美女摄影 2009.10.09 liumo1 69 6 2017-06-16 12:39
美女摄影 svXAH liumo1 26 3 2017-06-16 12:33
美女摄影 602258788 liumo1 71 8 2017-06-16 12:32
美女摄影 61404121362 liumo1 57 5 2017-06-16 12:31
美女摄影 61506003024 liumo1 45 4 2017-06-16 12:30
巫妖王区 是呀,好看 liumo1 45 6 2017-06-16 12:29
美女摄影 快递少女 liumo1 75 5 2017-06-16 12:23
美女摄影 美的晶晶 liumo1 25 4 2017-06-16 12:20
Unity3D 【圣剑传说】全套源代码,包含服务器+客户端 isjcll 102 13 2017-06-16 12:02
动画技术 郑佳次世代游戏动画课程案例——人物武器篇 SimonW 49 6 2017-06-16 11:54
元素知道 求助 猎狐狸的学者 0 0 2017-06-16 11:40
版权维护【禁发】 ZBRUSH 4r8 破解版 samoyu 101 0 2017-06-16 11:35
角色素材 守望同人大合集--790P ningxpsny 68 6 2017-06-16 11:32
美女摄影 韩国性感模特写真集女性人体参考CSQ chunhui518 255 45 2017-06-16 11:19
独立角色 小精灵 JBtalkfox 69 16 2017-06-16 11:12
版权维护【禁发】 zbrush4r8下载 nqg 105 1 2017-06-16 11:10
教程下载 ZB4r8新功能演示【更新61个】 beck 663 180 2017-06-16 11:09
元素知道 咱论坛有app吗 夺命小白兔 8 2 2017-06-16 11:08
版权维护【禁发】 【盘古的声音大神教程高清完整版】 盘古3D辅助概念设计网络班盘古网络班 XuR 10 2 2017-06-16 11:07
场景模型 卡通房子 JBtalkfox 75 9 2017-06-16 11:02
教程下载 GameMaker Studio游戏制作界面基础训练视频教程 Diss 59 15 2017-06-16 11:00
版权维护【禁发】 Zbrush 4r8官方最新破解版 【重磅推出!!!】 nu3388nu3388 18 3 2017-06-16 10:55
独立角色 诸葛亮 JBtalkfox 33 5 2017-06-16 10:48
版权维护【禁发】 ZBRUSH 4R8 中英切换版超强新功能 qq767794914 202 0 2017-06-16 10:44
独立角色 石头怪 JBtalkfox 66 8 2017-06-16 10:42
角色素材 3个角色超清大图 其中2个psd dibushi 188 32 2017-06-16 10:40
欧美大神 《巫师3》精美同人作品 来局昆特牌吧 空空如也不知处 45 4 2017-06-16 10:11
举报投诉 这个帖子已经失效了 蓝精灵2007 0 0 2017-06-16 10:06
教程下载 Unity游戏迷宫设计实例训练视频教程 Diss 70 20 2017-06-16 10:00
Shader 冰,水,镜面质感shader twilightzsc 36 2 2017-06-16 09:59
版权维护【禁发】 zb4r8带crack文件~~新鲜的 桥豆丶麻袋 156 10 2017-06-16 09:37
举报投诉 重复帖子,请删除 癫风舞者 5 0 2017-06-16 09:33
每日涂鸦练习 每天都有不同感觉 老蔡珊 52 9 2017-06-16 09:24
每日涂鸦练习 练习 阳子的天空 42 4 2017-06-16 09:18
游戏新闻 进军移动电竞?Supercell公布新作《BrawlStars》 jiangzi 27 2 2017-06-16 09:18
VR讯息 任天堂首款VR游戏! 马里奥卡丁车VR即将亮相 jiangzi 16 2 2017-06-16 09:17
教程下载 Substance Designer冬天雪景纹理制作视频教程合辑 Diss 178 43 2017-06-16 09:00
综合分享 3D美女 yangshengping18 26 4 2017-06-16 08:52
传统绘画 国内儿插师作品3 daodan 37 6 2017-06-16 08:43
综合分享 几张不错的图 yangshengping18 13 2 2017-06-16 08:41
申请区 申请水晶矿成就 loyant 0 0 2017-06-16 08:14
教程下载 3dsmax林中房屋建筑可视化视频教程 Diss 68 16 2017-06-16 08:00
游戏新闻 《WILL:美好世界》:国产文字冒险游戏独特而大胆的尝试 努力的人 39 3 2017-06-16 06:20
重复资源 【首发】最新SAM人体网络班第四期教程!附带psd 爱画画的小陆 118 13 2017-06-16 00:26
UE虚幻 unreal engine4各种爆炸特效4.12版 Location1307 36 7 2017-06-16 00:11
企业招聘 上海浦东新区招游戏UI写实项目大IP发行保障 tongzheng 23 1 2017-06-15 23:51
重复资源 K大场景教程视频!只要66元素币哦! 猫仔瓜瓜 130 24 2017-06-15 23:18
教程下载 俄罗斯油画大师花卉教程 猫仔瓜瓜 59 13 2017-06-15 23:01
日韩精品 岛风舰娘分层PSD源文件附过程图 猫仔瓜瓜 96 13 2017-06-15 22:54
精美壁纸 《黑暗之魂3》高清游戏壁纸 传火终焉 空空如也不知处 73 11 2017-06-15 22:43
元素矿场 星球·矿石主,50矿工能混黑洞么 loyant 45 13 2017-06-15 22:15
举报投诉 6月13号中午12点被盗号购买了1个6千多元素币的主题 llyfen 80 6 2017-06-15 21:56
产品代理 手机棋牌游戏代理加盟,手机电玩城捕鱼游戏小本创业 jinde00 11 1 2017-06-15 21:00
画笔资源 ZB笔刷集合套装 260个材质球 10G+最全!! 1109797980 48 6 2017-06-15 20:38
教程下载 花精灵姐妹视频教程 dibushi 154 38 2017-06-15 20:13
场景模型 凌空楼 zxh814308619 38 5 2017-06-15 20:11
教程下载 美女头像加速视频 dibushi 112 32 2017-06-15 19:31
美女摄影 玉洁美女旅拍49P 小龙鱼在飞 129 15 2017-06-15 17:28
美女摄影 迷人小嘴50P 小龙鱼在飞 83 7 2017-06-15 17:24
元素知道 哪位大神有Shader weaver插件? 赤峰人不流浪 49 4 2017-06-15 17:02
高清CG EA E3 新游戏 anthem 赞歌 4k 宣传片 喜欢的拿去 mkljl2 85 6 2017-06-15 16:12
Unity3D Unity游戏资源素材2017年6月合辑第一季 Diss 359 52 2017-06-15 16:07
重复资源 Substance Painter 2.0.3 最新版中文汉化版 nqg 0 0 2017-06-15 16:05
重复资源 Substance Painter贴图教程 nqg 0 0 2017-06-15 15:59
重复资源 Substance Painter 基础教程 nqg 0 0 2017-06-15 15:50
申请区 对换土豪金和活跃度换元素币 小小 18 0 2017-06-15 15:41
重复资源 Substance Painter岩怪角色贴图教程 nqg 0 0 2017-06-15 15:37
举报投诉 资源无效 ADang 0 0 2017-06-15 15:37
美女摄影 第一次发帖多多支持,分享一些我觉得有感觉的 翔上一枝花 74 5 2017-06-15 15:29
重复资源 zbrush高级外星角色雕刻 nqg 0 0 2017-06-15 15:27
书籍教程 日本特效教程爆破,烟雾,水花 猫仔瓜瓜 114 16 2017-06-15 15:26
重复资源 mari真实人物头部贴图绘制教程 nqg 0 0 2017-06-15 15:19
角色素材 死或生性感沙滩图集368 ningxpsny 366 32 2017-06-15 15:15
重复资源 zbrush雕刻布料类教程 nqg 0 0 2017-06-15 15:08
重复资源 Substance Painter初级贴图教程适合新手 nqg 0 0 2017-06-15 14:58
举报投诉 申请退币资源无效 43之空 0 0 2017-06-15 14:51
重复资源 zbrush雕刻游戏废弃场景 nqg 0 0 2017-06-15 14:51
重复资源 zbrush硬表面科幻角色头盔制作教程 nqg 0 0 2017-06-15 14:36
教程下载 mari绘制真实角色贴图教程 nqg 49 3 2017-06-15 14:29
举报投诉 申请退币链接无效 狸狸狸 0 0 2017-06-15 14:18
举报投诉 申请退币链接无效 taozuju 0 0 2017-06-15 14:17
美女摄影 毛衣妹又来了 liumo1 109 7 2017-06-15 14:16
日韩精品 12位画师小合集 最在意的谁 86 10 2017-06-15 14:14
原创3D作品 次时代手绘风——不知道咋样 有课 292 27 2017-06-15 14:14
每日涂鸦练习 草稿一枚 心在跳动 25 4 2017-06-15 14:09
元素知道 现在进别人空间是不是不加活跃了 触手CQC 16 2 2017-06-15 14:07
巫妖王区 各种角度讲解解构知识 liumo1 40 5 2017-06-15 14:05
美女摄影 yanyan摄影资料 liumo1 72 8 2017-06-15 14:02
企业招聘 北京巴别时代 盗墓笔记项目组 制作人直招 zps244667 44 1 2017-06-15 13:51
美女摄影 陈飞燕 水原美咲 liumo1 132 9 2017-06-15 13:48
元素知道 发现论坛用户组设定的一个bug 努力的人 16 3 2017-06-15 13:38
举报投诉 模型无贴图等于无用要求退币 baishifanzon 0 0 2017-06-15 13:29
Unity3D Unity 六边形地图系列(一) : 创建一个六边形网格 努力的人 58 6 2017-06-15 13:20
Cocos2d cocos2D-x初探学习笔记(31)2.1新特性CCPhysicsSprite 努力的人 20 3 2017-06-15 13:16
其他引擎 rmxp队列行进不被门夹的事件设置 努力的人 17 2 2017-06-15 13:12
游戏新闻 《香缇:半精灵英雄》DLC-Pirate Queen’s Quest宣传片;你准备好迎接Risky了吗? 努力的人 27 5 2017-06-15 12:38
巫妖王区 毛衣妹妹,你看到的比你想到的还要多些。。。。。 liumo1 124 9 2017-06-15 12:37
美女摄影 leisi liumo1 68 11 2017-06-15 12:30
美女摄影 透明水气球 liumo1 66 7 2017-06-15 12:28
教程下载 zbrush和3dmax制作废墟场景 nqg 75 6 2017-06-15 11:59
教程下载 MARI3.0视频教程 nqg 38 5 2017-06-15 11:51
Shader Shader Forge 透明冰材质球 阿耀 90 5 2017-06-15 11:38
重复资源 zbrush,maya高精度游戏角色制作教程 nqg 11 1 2017-06-15 11:31
每日涂鸦练习 小涂鸦 百听 27 7 2017-06-15 10:52
游戏新闻 《辐射4》VR版上线Steam:2017年Q4发售 太阳的眼泪 26 3 2017-06-15 10:47
元素知道 想知道元素币可以转让么 yunzhiqiang 40 7 2017-06-15 10:43
技术文章 zbrush木板制作技巧 luoshaonan 49 5 2017-06-15 10:34
举报投诉 [3D资源] 卡通街道场景 289689852 7 1 2017-06-15 10:33
技术文章 zbrush雕刻褶皱的技巧 luoshaonan 68 9 2017-06-15 10:32
教程下载 PencilKings商业手绘插画教程合辑第1部分 PencilKings Latest Collection Part 1 gitzai 190 39 2017-06-15 10:32
手游资源 {新人试水贴}三国手游多角色素材【数量900+】 xrty05 60 6 2017-06-15 10:31
教育培训 艺数绘43期特训班 钟风华、杜震亲授课程 开始招生啦! 艺数绘 1045 217 2017-06-15 10:22
原创3D作品 原创+参考敢达模型。结构或者不具体,根据自己的感觉做的。 2607025591 157 20 2017-06-15 10:18
日韩精品 超华丽韩国风牛人BRaveking------105P 最在意的谁 162 64 2017-06-15 10:14
Q萌主义 Q版海贼王立绘【235P】 lac1991 62 6 2017-06-15 10:11
强大插件 强大渲染器redshift2.079破解版多个软件集合的(maya max 等一体) 2428893142 90 21 2017-06-15 10:09
综合分享 游戏女子 yangshengping18 27 1 2017-06-15 09:46
成套集合 有木有王菲的赶脚? 老蔡珊 92 12 2017-06-15 09:24
每日涂鸦练习 练习 阳子的天空 36 8 2017-06-15 09:13
申请区 申请矿场水晶矿、赤晶矿奖励 你潇哥哥 18 0 2017-06-15 09:11
成套集合 收集的ZB图片资源 986395 90 8 2017-06-15 09:11
举报投诉 资源不存在申请退币 醉幻画 0 0 2017-06-15 08:55
传统绘画 国内儿插师作品2 daodan 73 11 2017-06-15 08:23
古典COS 古装cos loyant 98 12 2017-06-15 08:00
教程下载 ZBRUSH4R8新功能直播预告!+官方全程视频+新功能手册!! evaer00 495 25 2017-06-15 07:03
重复资源 substance在max_vray中还原效果Substance Painter To Vray 桥豆丶麻袋 0 0 2017-06-15 01:16
【扩散者】专区 【扩散大招】【2017年6月第一次】ID王哥惊动党中央 王哥惊动党中央 41 3 2017-06-14 22:24
原创2D作品 练习练习 素雨 64 23 2017-06-14 22:19
重复资源 超写实五官景物绘画技法 猫仔瓜瓜 0 0 2017-06-14 22:10
截图资源 《杀手学堂》高清壁纸 释放杀手本能 空空如也不知处 18 4 2017-06-14 21:54
重复资源 cg长老大神Q版cg原画视频教程 !!火!!! 天下无极 1 1 2017-06-14 20:42
动画资源 亡灵弓箭手 SimonW 62 10 2017-06-14 20:34
动画资源 美丽的花仙子! SimonW 119 14 2017-06-14 20:33
动画资源 巨斧魔王 SimonW 46 4 2017-06-14 20:32
元素悬赏 [悬赏活动]水墨图素 元素界王 64 1 2017-06-14 20:24
日韩精品 韩国剑灵画师이배리(Inmok)原图58P whoever1 502 105 2017-06-14 20:09
重复资源 肖吉!2期原画教程!!火火 天下无极 2 1 2017-06-14 20:08
【扩散者】专区 【扩散大招】2017年6月第一次 18650007502 0 0 2017-06-14 20:05
美女摄影 潘春辉 liumo1 151 14 2017-06-14 18:41
美女摄影 张圆圆 liumo1 169 15 2017-06-14 18:40
美女摄影 倪婷婷 liumo1 102 14 2017-06-14 18:38
举报投诉 链接失效申请退币 昨日之昨 0 0 2017-06-14 18:05
企业招聘 广州谷得招聘主美 UI 数值 HR-詹詹 1 2 2017-06-14 17:58
截图资源 《龙珠:超宇宙2》高清游戏截图 群英大战超级巨猿 空空如也不知处 36 7 2017-06-14 17:56
举报投诉 360失效。求更新资源或者退币。 q140868880 0 0 2017-06-14 17:54
【扩散者】专区 六月第二次 大芸彩 0 0 2017-06-14 17:51
举报投诉 谁帮查看一下帖子里面视频是否属实 zfites 0 0 2017-06-14 17:30
成套集合 王者荣誉模型 1440396996 108 32 2017-06-14 17:16
举报投诉 申请退回元素币 那你看看 18 2 2017-06-14 17:04
欧美大神 非常受欢迎的西班牙漫画家Sergi Brosa 的作品 mtps80 102 14 2017-06-14 17:01
申请区 申请矿场水晶矿、赤晶矿 你潇哥哥 10 1 2017-06-14 16:50
重复资源 科幻战士手绘艺术插画视频教程 mtps80 72 18 2017-06-14 16:49
申请区 矿场成就奖励申请 youcan035 0 0 2017-06-14 16:45
教程下载 影视游戏概念生物设计绘画视频教程 mtps80 103 13 2017-06-14 16:44
强大插件 震惊 ! dds居然可以看缩略图! 大芸彩 73 5 2017-06-14 16:27
版权维护【禁发】 ART+全视频教学 鲲鲲鹏 88 14 2017-06-14 16:26
PNG素材 PNG免扣彩色羽毛 欧美矢量图案 装饰背景设计参考素材 双江极品家 76 30 2017-06-14 16:24
版权维护【禁发】 绿榴莲16周场景教学 鲲鲲鹏 54 3 2017-06-14 16:19
日韩精品 异度传说3 原画设定 七旸/煌炀曜煦 165 23 2017-06-14 16:18
传统绘画 国内儿插师作品1 daodan 45 6 2017-06-14 16:18
书籍教程 男鹿和雄画集 六六六六六咯 67 15 2017-06-14 16:11
行业讯息 东南亚移动游戏增长潜力大 预计多国年均复合增长率超30% jiangzi 14 2 2017-06-14 15:58
图文教程 AE软件实用操作小技巧(二) 像素君 18 2 2017-06-14 15:55
综合分享 国内画师游戏插画作品欣赏 silucgcwy 9 2 2017-06-14 15:47
截图资源 EA最新大作E3展视频截图,附4K 2160P视频下载地址 ♂老婆饶命啊 329 58 2017-06-14 15:27
线稿时代 漫画插画新手参考 丿若邪° 74 11 2017-06-14 15:26
截图资源 《地铁:离去》震撼高清截图 纤毫毕现 空空如也不知处 36 4 2017-06-14 15:20
美女摄影 这个好看 liumo1 123 8 2017-06-14 14:44
美女摄影 好美呀,流水的 liumo1 77 7 2017-06-14 14:42
举报投诉 资源链接失效 tlh1988820 0 0 2017-06-14 14:39
成套集合 韩国写实高精度次时代怪物模型第二弹!2G 黄金圣主 193 34 2017-06-14 14:27
美女摄影 露露 liumo1 49 6 2017-06-14 13:49
教程下载 3D游戏艺术家职业终极指南视频教程 Diss 620 140 2017-06-14 13:05
游戏新闻 盟云移软代理VR游戏评测《城市修复者2.0》 duokesanu 13 1 2017-06-14 12:39
成套集合 韩国写实高精度次时代怪物模型第一弹!2G 黄金圣主 556 95 2017-06-14 12:27
技术文章 使用Unity制作的一个望远镜特效,在狙击手游戏中很常见 努力的人 21 1 2017-06-14 12:01
美女摄影 VirtuaGirl 2017 免摳圖PNG素材 caps2000 246 28 2017-06-14 11:44
元素悬赏 悬赏3d溜溜网几个服装模型 小小小芳 162 4 2017-06-14 11:43
技术文章 Unity UGUI——Canvas绘制模式比较 努力的人 13 1 2017-06-14 11:41
欧美大神 GUWEIZ作品125P 3D初学者 101 18 2017-06-14 11:39
申请区 申请矿产成就奖励 panfeng811 0 0 2017-06-14 11:38
VR讯息 霍比特人弗罗多联合育碧制作的vr恐怖游戏 努力的人 21 2 2017-06-14 11:36
游戏新闻 《传说之下》(Undertale)登录PS4&PSV!有实体版!更有收藏纪念版! 努力的人 26 1 2017-06-14 11:27
举报投诉 购买后,不能下载,说啥外国网盘 tzn0001 4 0 2017-06-14 11:27
UE虚幻 解密照片级表现技巧(一些关于UE4建筑表现的废话) ♂老婆饶命啊 41 5 2017-06-14 11:13
举报投诉 俩个人发重复的资源,坑元素币啊,元素币来之不易,求退100元素币,谢谢 丹心一片0 23 1 2017-06-14 10:27
举报投诉 下载的资源解压不了,全是错误的,求退币,谢谢 丹心一片0 11 0 2017-06-14 10:16
Q萌主义 小清新图集【779P】 空空如也不知处 72 8 2017-06-14 10:11
申请区 申请宇宙魔方奖励~ zqone1 18 0 2017-06-14 09:56
传统绘画 《Anatomy For Sculptors》英文原版 PDF wtwox 87 14 2017-06-14 09:48
工业模型 精致弥勒佛3D模型 钢铁大叔 91 10 2017-06-14 09:46
教程下载 色彩鲜艳的莫什么的H喵插画教程 TTTTTTTTTUY 229 27 2017-06-14 09:44
美女摄影 清新邻家女孩17P 小龙鱼在飞 59 7 2017-06-14 09:29
每日涂鸦练习 有种做在公交车靠窗的感觉~ 老蔡珊 84 6 2017-06-14 09:29
美女摄影 俏丽衣模50P 小龙鱼在飞 71 8 2017-06-14 09:24
美女摄影 写真 鈴村あいり45P 小龙鱼在飞 87 6 2017-06-14 08:56
美女摄影 美少女-淇淇36P 小龙鱼在飞 92 7 2017-06-14 08:50
传统绘画 魔女急宅变场景 daodan 52 4 2017-06-14 08:33
传统绘画 奇幻插画高清大图 daodan 61 9 2017-06-14 08:30
元素悬赏 谁还有金姐/宋其金 实体班的录屏?3000币求购! MISO 211 7 2017-06-14 02:47
科幻世界 白俄罗斯 3d 设计师 Liudmila Kirdiashkina 小小小芳 168 29 2017-06-14 02:47
美女摄影 加班不在状态?骚年来选个女盆友吧~ 小小小芳 167 30 2017-06-14 02:40
场景模型 手绘写实精品菩萨石像,低模,超省贴图_(:з」∠)_ 小小小芳 142 17 2017-06-14 02:13
Unity资源 unity3d天空和天气环境脚本 小小小芳 91 14 2017-06-14 02:01
场景模型 精品精挑欧式场景模型+贴图273.2M 小小小芳 397 44 2017-06-14 01:50
Unity资源 unity3d科幻实验室场景模型包 小小小芳 108 12 2017-06-14 01:33
科幻世界 科幻世界 reny 128 36 2017-06-13 23:51
举报投诉 链接已失效 申请退币 zqone1 0 0 2017-06-13 23:24
生活交流 Sad Birthday! 乐兔blake 144 36 2017-06-13 23:15
行业讯息 《暴雨》累计销量突破450万 收入或超11亿元 jiangzi 31 2 2017-06-13 22:49
独立角色 利用substance画的贴图 战士 wei2 214 20 2017-06-13 21:02
特效素材 4万张超强集合 光效序列帧PNG素材合集 七冻灭炎师 293 63 2017-06-13 20:12
美女摄影 轩子巨2兔 liumo1 105 15 2017-06-13 20:02
日韩精品 最全法师10000P ufoxmm 365 62 2017-06-13 19:37
图文教程 教程|2D效果星空元素制作 像素君 25 4 2017-06-13 19:22
版权维护【禁发】 黄光剑2016网络基础班录屏 wjyhl 105 5 2017-06-13 18:48
美女摄影 美丽少妇纯小希的表情30P 小龙鱼在飞 108 16 2017-06-13 18:32
Unity资源 unity3d末日后的城镇场景模型包Great Post-Apocalyptic City 1.1 zeromaya 55 9 2017-06-13 18:10
Unity3D 更新!最新插件 unity5.6可用 !Shader Forge v1.37 voiov 86 7 2017-06-13 18:08
Unity资源 unity3d废弃的医院模型包Abandoned Hospital 1.0 zeromaya 35 7 2017-06-13 17:56
重复资源 Photoshop影视级角色数字艺术绘画视频教程 mtps80 14 3 2017-06-13 17:53
骑宠模型 ·《World of Warcraft》系列_Zandalaribabyraptor redback 42 5 2017-06-13 17:45
Unity资源 unity3d印第安村落模型包FPS Village Native American Pack 1.0 zeromaya 59 5 2017-06-13 17:43
怪物模型 ·《World of Warcraft》系列_Zandalaridevilsaur redback 62 9 2017-06-13 17:23
举报投诉 这位大大发表的关于全民大主宰的模型资源链接差不多都失效了啦,求退币 zzZ在发呆 0 0 2017-06-13 17:18
举报投诉 链接失效,申请退币 c2engine 0 0 2017-06-13 17:17
申请区 申请泰坦高能矿、以及兑换1000活跃度 18928781664 0 0 2017-06-13 17:15
东方神韵 960p三国志+妖孽女神——美女万千!!!960张 lijie6911 292 42 2017-06-13 17:14
怪物模型 ·《World of Warcraft》系列_Zandalarigolem redback 20 1 2017-06-13 17:11
重复资源 重复:天天 风之旅场景(这套比别人的便宜多了) LordOath 8 1 2017-06-13 17:09
综合分享 游戏插画之多元菌画师作品欣赏 silucgcwy 27 3 2017-06-13 17:08
怪物模型 ·《World of Warcraft》系列_Zandalaritriceratops redback 60 8 2017-06-13 17:05
元素知道 为什么我升级到元素神怎么又掉下来了呢?: w07136 26 7 2017-06-13 16:51
骑宠模型 ·《World of Warcraft》系列_Zeppelinmount redback 42 6 2017-06-13 16:51
重复资源 故事版叙述概念艺术绘画核心训练视频教程 mtps80 0 0 2017-06-13 16:49
美女摄影 (C91)[つぐつぐ (つぐ)]ツグステージ 働くレイヤーシリーズ2 ちせの新人研修と2人... liumo1 109 10 2017-06-13 16:37
怪物模型 ·《World of Warcraft》系列_Archdruid redback 21 3 2017-06-13 16:35
东方神韵 乱三国——美女万千!!! lijie6911 257 31 2017-06-13 16:28
举报投诉 链接失效,求退币 zzZ在发呆 0 0 2017-06-13 16:27
图文教程 教程|AE软件实用操作小技巧 像素君 13 1 2017-06-13 16:24
怪物模型 ·《World of Warcraft》系列_Athissa redback 18 3 2017-06-13 16:19
游戏新闻 E3 2017: 育碧发布VR游戏《Space Junkies》 duokesanu 24 3 2017-06-13 16:00
Unity3D unity3d-次时代左轮手枪 Revolver 请叫我搬运工 72 12 2017-06-13 15:55
美女摄影 最爱松果儿 liumo1 68 9 2017-06-13 15:39
元素知道 看看这种算特效吧 lijie6911 29 5 2017-06-13 15:37
综合分享 这个妹子怎么样? lijie6911 41 4 2017-06-13 15:31
教程下载 SAM老师2016超级人体教程 癫风舞者 334 33 2017-06-13 15:26
美女摄影 changtuiluoli liumo1 44 5 2017-06-13 15:17
美女摄影 许喵喵Mickey liumo1 59 8 2017-06-13 15:15
美女摄影 猫娘cosplay liumo1 53 9 2017-06-13 15:11
举报投诉 链接失效,申请退币 c2engine 0 0 2017-06-13 15:09
教程下载 小狗数字绘画与上色实例训练视频教程 Diss 46 14 2017-06-13 15:00
元素知道 请问...贡献值要怎么获取? Nymph 27 4 2017-06-13 14:43
举报投诉 失效资源,退币退币,支付 后连接失效 wuying0497 14 1 2017-06-13 14:40
企业招聘 3D人物建模师(模型,贴图,绑定,动画,渲染方向) yomiplanet 0 0 2017-06-13 14:36
举报投诉 重复资源 muyou 0 0 2017-06-13 14:34
古典COS 古装妹子602P loyant 36 3 2017-06-13 14:30
美女摄影 大眼睛女孩无辜眼神望着你50P 小龙鱼在飞 64 7 2017-06-13 14:28
CG角色 不错的3d资源 lijie6911 79 11 2017-06-13 14:14
教程下载 PS液态艺术特效制作视频教程 Diss 113 29 2017-06-13 14:00
元素知道 论坛里的曼奇教程哪个好? 触手CQC 17 4 2017-06-13 13:53
每日涂鸦练习 咯咯 lijie6911 107 16 2017-06-13 13:51
游戏新闻 E3 2017:《刺客信条:起源》上架Steam!售价248元 wyl2615 32 3 2017-06-13 13:39
开发者交流 某位国产独立游戏人的独白 努力的人 25 1 2017-06-13 13:35
教程下载 卡通风格僵尸游戏角色绘画实例训练视频教程 Diss 35 7 2017-06-13 13:00
游戏新闻 《奥里与迷失森林》续作于E3亮相 努力的人 64 3 2017-06-13 12:00
教程下载 3dsmax与Nuke海空大战动力学与流体视觉特效视频教程 Diss 40 12 2017-06-13 12:00
举报投诉 链接失效,坑币了 longjb1985 0 0 2017-06-13 11:16
传统绘画 一些插画 daodan 40 6 2017-06-13 11:03
举报投诉 【已处理】帖子是不是重复了? 丿若邪° 0 0 2017-06-13 11:02
教程下载 Unity中2D游戏角色控制技术视频教程 Diss 41 5 2017-06-13 11:00
教程下载 人体结构素描大师Glenn Vilppu视频教程全集(中文字幕)超清下载 ufoxmm 188 33 2017-06-13 10:48
传统绘画 意大利画本 daodan 37 5 2017-06-13 10:22
教程下载 Zbrush与3dsmax游戏武器建模视频教程 Diss 297 65 2017-06-13 10:00
教程下载 摄影实用灯光与色彩探究视频教程[中文字幕] 高端灯光学习(首发) qqwyn001 97 17 2017-06-13 09:54
每日涂鸦练习 重拾色彩 老蔡珊 118 19 2017-06-13 09:34
教程下载 zbrush-皮鞋的雕刻教程 大坏蛋 445 135 2017-06-13 09:18
教程下载 UE4虚幻引擎初学者全面核心训练视频教程 Diss 88 19 2017-06-13 09:00
举报投诉 元素币来之不易呀~ TTTTTTTTTUY 19 0 2017-06-13 08:58
独立角色 精品女模 daodan 101 13 2017-06-13 08:48
举报投诉 失效资源,付费后发现地址失效 小龙鱼在飞 0 0 2017-06-13 08:31
教程下载 UE4虚幻引擎中C++脚本语言技术视频教程 Diss 54 15 2017-06-13 08:00
【鼓励师】专区 【申请】六月第二波子弹 伊卜星 5 1 2017-06-13 07:22
教程下载 Quixel Suite逼真模型纹理工作流程训练视频教程 Diss 385 123 2017-06-13 07:00
元素悬赏 400首韩国女子天团高清MV大小:44.12GB kenan2016 303 19 2017-06-13 01:00
模板动作 炫酷地狱火艺术特效PS动作 Diss 40 15 2017-06-13 00:44
材质贴图 雕塑作品2500p 钢琴上的芭蕾 89 8 2017-06-13 00:10
综合分享 Mentalray for maya渲染高级教程(英文无字幕)(1) wei2 10 2 2017-06-12 23:27
综合分享 Mari绘制真实人物皮肤贴图教程 - Painting Realistic Skin in Mari 2.0 - Gnomon W... wei2 11 2 2017-06-12 23:25
日韩精品 大神战斗时刻1200P ufoxmm 142 24 2017-06-12 23:07
东方神韵 自己珍藏的几个资源!!! lijie6911 221 21 2017-06-12 23:06
每日涂鸦练习 最终幻想14 2.0 部分原画及截图30P abcd2525424 48 11 2017-06-12 21:39
动画资源 黑暗骨龙 SimonW 67 8 2017-06-12 21:15
动画资源 断臂兽 SimonW 33 7 2017-06-12 21:13
每日涂鸦练习 作品 abcd2525424 52 11 2017-06-12 21:10
每日涂鸦练习 练习 abcd2525424 35 5 2017-06-12 20:59
CG模型 次世代-科幻飞行器模型 adm464 88 22 2017-06-12 19:32
综合分享 袋鼠/豹子/海豚/海龟/狐狸 运动规律参考图片 五魔、鳜 49 13 2017-06-12 18:40
原创2D作品 有村架纯~~~ 7006070 139 16 2017-06-12 18:40
强大插件 初音未来动态桌面 带设置中文教程 七冻灭炎师 163 28 2017-06-12 18:26
举报投诉 购买后才显示错误失效贴 xt5242 0 0 2017-06-12 17:03
举报投诉 资源失效[3D资源] (Dungeon Keeper角色,动作,原画,低价 sdmusic 0 0 2017-06-12 16:58
举报投诉 购买后 百度云链接错误 精神切割 5 0 2017-06-12 16:50
游戏低模 公鸡啄蚯蚓。 q140868880 35 4 2017-06-12 16:46
综合分享 U3D基础进阶教程 O^勿愚人 21 3 2017-06-12 16:44
每日涂鸦练习 也算一种涂鸦~~看图作诗9《寄生草·元素瑶》 伊卜星 232 23 2017-06-12 16:43
综合分享 U3D新手初级教程 O^勿愚人 34 4 2017-06-12 16:20
Unity3D 60种unity3d特效包 tuyuer 67 9 2017-06-12 16:19
举报投诉 连接失效 Ryudo 0 0 2017-06-12 16:07
举报投诉 老帖子了,无效帖,只有图片,还在模型区 大芸彩 0 0 2017-06-12 16:03
Q萌主义 q版角色 千离大大 129 22 2017-06-12 15:54
怪物军团 一些写实参考 千离大大 100 19 2017-06-12 15:48
【鼓励师】专区 【申请】六月第二波子弹 Emma瑶瑶 0 0 2017-06-12 15:46
申请区 兑换活跃度 zxcvbnm345 0 0 2017-06-12 15:03
手游资源 画功精湛!!全新三国手游《雷鸣三国》资源下载~ 775054634@qq.co 342 48 2017-06-12 14:55
举报投诉 资源失效 笑死小四肖思 0 0 2017-06-12 14:43
举报投诉 链接失效 liumo1 0 0 2017-06-12 14:42
行业讯息 《血污:夜之仪式》公布E3宣传片 努力的人 39 4 2017-06-12 14:32
游戏新闻 E3 2017:《刺客信条:起源》技能树解析 经典战猎法? wyl2615 7 2 2017-06-12 14:24
Unity资源 unity3d主题公园动画模型包Theme Park - Animated 1.0 zeromaya 144 23 2017-06-12 14:17
巫妖王区 这就是美 liumo1 52 8 2017-06-12 14:13
青铜画集 自己涂的,欢迎批评指正!>3< NAT-2017 85 10 2017-06-12 12:57
美女摄影 可爱嫩模C酱60P 小龙鱼在飞 123 17 2017-06-12 12:26
游戏新闻 VR版CSGO?《特种部队》支持跨平台多人对战 duokesanu 35 5 2017-06-12 11:53
举报投诉 资源链接不存在 PerseusM 0 0 2017-06-12 11:51
元素知道 请问究竟怎么设置封面?【已解决!与楼主有同样问题的朋友可看三楼详细解答】 伊卜星 23 3 2017-06-12 11:45
举报投诉 帖子失效 qq吧 0 0 2017-06-12 11:42
教程下载 艺术家hazardous Zb雕刻 直播录像更新 ninec 376 39 2017-06-12 11:27
举报投诉 投诉啊,内容不符,退钱可好。 A小智 33 2 2017-06-12 11:07
生活交流 几个你-- Emma瑶瑶 223 23 2017-06-12 11:07
地图场景 18P横版神谕地图 丹心一片0 110 14 2017-06-12 10:50
地图场景 搜神志18P剪影地图 丹心一片0 34 3 2017-06-12 10:43
举报投诉 重复资源 xiaoguaikkk 0 0 2017-06-12 10:31
地图场景 西方场景魔神之怒41P全尺寸场景地图 丹心一片0 33 1 2017-06-12 10:19
照片集合 女八路军参考 daodan 111 13 2017-06-12 09:50
举报投诉 无效资源,申请退币 断唧唧 0 0 2017-06-12 09:27
每日涂鸦练习 销魂的烟 老蔡珊 78 8 2017-06-12 09:21
元素知道 怎么用3DMAX分两套UV 有酬谢 五指 27 2 2017-06-12 09:17
美女摄影 丰满美女迷人写真50P 小龙鱼在飞 174 15 2017-06-12 08:51
举报投诉 无聊的灌水贴 上海唐寅 0 0 2017-06-12 08:39
古典COS 古装妹子 loyant 47 10 2017-06-12 07:59

E3D-微元素Q群:

107775856
周一至周日:08:00-22:00

©2014  微元素. All rights reserved. ( 沪ICP备15002926号 )       
返回顶部